Observation data for Dell City 1N on 05/25/2020      Previous  Date  Next       Current Mesonet Observations  Soil Data  Daily Summary Page  Observations in Plain Language
KDC1 250500Z 29007KT 16/01 A2978 RMK A01 T01610005  RH  034%=      5-min Rain = 0
KDC1 250501Z 29008KT 16/01 A2978 RMK A01 T01590007  RH  036%=      5-min Rain = 0
KDC1 250502Z 29008KT 16/01 A2978 RMK A01 T01570008  RH  036%=      5-min Rain = 0
KDC1 250503Z 30008KT 16/01 A2978 RMK A01 T01560009  RH  037%=      5-min Rain = 0
KDC1 250504Z 30008KT 16/01 A2978 RMK A01 T01550011  RH  037%=      5-min Rain = 0
KDC1 250505Z 30008KT 15/01 A2979 RMK A01 T01540011  RH  038%=      5-min Rain = 0
KDC1 250506Z 28006KT 15/01 A2979 RMK A01 T01530011  RH  038%=      5-min Rain = 0
KDC1 250507Z 27007KT 16/00 A2979 RMK A01 T01550001  RH  035%=      5-min Rain = 0
KDC1 250508Z 28008KT 16/M00 A2979 RMK A01 T01621002  RH  033%=      5-min Rain = 0
KDC1 250509Z 29007KT 17/00 A2979 RMK A01 T01650003  RH  033%=      5-min Rain = 0
KDC1 250510Z 29007KT 16/01 A2979 RMK A01 T01640006  RH  034%=      5-min Rain = 0
KDC1 250511Z 28007KT 16/01 A2979 RMK A01 T01620007  RH  035%=      5-min Rain = 0
KDC1 250512Z 28008KT 16/01 A2979 RMK A01 T01590005  RH  035%=      5-min Rain = 0
KDC1 250513Z 28009KT 16/00 A2979 RMK A01 T01590000  RH  034%=      5-min Rain = 0
KDC1 250514Z 28009KT 16/00 A2979 RMK A01 T01610000  RH  034%=      5-min Rain = 0
KDC1 250515Z 28008KT 16/00 A2979 RMK A01 T01610001  RH  034%=      5-min Rain = 0
KDC1 250516Z 29009KT 16/00 A2979 RMK A01 T01600002  RH  034%=      5-min Rain = 0
KDC1 250517Z 29009KT 16/00 A2979 RMK A01 T01600003  RH  034%=      5-min Rain = 0
KDC1 250518Z 29009KT 16/00 A2979 RMK A01 T01580002  RH  034%=      5-min Rain = 0
KDC1 250519Z 28009KT 16/00 A2979 RMK A01 T01570001  RH  035%=      5-min Rain = 0
KDC1 250520Z 28009KT 16/00 A2979 RMK A01 T01570000  RH  034%=      5-min Rain = 0
KDC1 250521Z 28008KT 16/00 A2979 RMK A01 T01580001  RH  034%=      5-min Rain = 0
KDC1 250522Z 28008KT 16/00 A2979 RMK A01 T01580002  RH  034%=      5-min Rain = 0
KDC1 250523Z 28008KT 16/00 A2979 RMK A01 T01590003  RH  035%=      5-min Rain = 0
KDC1 250524Z 28005KT 16/01 A2979 RMK A01 T01590006  RH  035%=      5-min Rain = 0
KDC1 250525Z 28007KT 16/01 A2979 RMK A01 T01550010  RH  037%=      5-min Rain = 0
KDC1 250526Z 28007KT 15/01 A2979 RMK A01 T01510011  RH  038%=      5-min Rain = 0
KDC1 250527Z 28007KT 15/01 A2979 RMK A01 T01490011  RH  039%=      5-min Rain = 0
KDC1 250528Z 28007KT 15/01 A2979 RMK A01 T01490012  RH  040%=      5-min Rain = 0
KDC1 250529Z 28006KT 15/02 A2979 RMK A01 T01490015  RH  040%=      5-min Rain = 0
KDC1 250530Z 29006KT 15/02 A2979 RMK A01 T01500017  RH  041%=      5-min Rain = 0
KDC1 250531Z 29005KT 15/02 A2979 RMK A01 T01480015  RH  041%=      5-min Rain = 0
KDC1 250532Z 29005KT 15/02 A2979 RMK A01 T01460016  RH  041%=      5-min Rain = 0
KDC1 250533Z 28005KT 14/02 A2979 RMK A01 T01440016  RH  042%=      5-min Rain = 0
KDC1 250534Z 28005KT 14/02 A2979 RMK A01 T01430018  RH  043%=      5-min Rain = 0
KDC1 250535Z 29005KT 14/02 A2979 RMK A01 T01430019  RH  043%=      5-min Rain = 0
KDC1 250536Z 29005KT 14/02 A2979 RMK A01 T01420022  RH  044%=      5-min Rain = 0
KDC1 250537Z 29005KT 14/02 A2979 RMK A01 T01410022  RH  045%=      5-min Rain = 0
KDC1 250538Z 29005KT 14/02 A2979 RMK A01 T01410017  RH  043%=      5-min Rain = 0
KDC1 250539Z 29006KT 14/01 A2979 RMK A01 T01420009  RH  040%=      5-min Rain = 0
KDC1 250540Z 29007KT 14/01 A2979 RMK A01 T01440007  RH  039%=      5-min Rain = 0
KDC1 250541Z 28007KT 15/00 A2979 RMK A01 T01450004  RH  038%=      5-min Rain = 0
KDC1 250542Z 28007KT 15/M01 A2979 RMK A01 T01481008  RH  034%=      5-min Rain = 0
KDC1 250543Z 28007KT 16/M01 A2979 RMK A01 T01561014  RH  031%=      5-min Rain = 0
KDC1 250544Z 28008KT 16/M01 A2979 RMK A01 T01621014  RH  030%=      5-min Rain = 0
KDC1 250545Z 27006KT 16/M01 A2979 RMK A01 T01641012  RH  030%=      5-min Rain = 0
KDC1 250546Z 27006KT 17/M02 A2979 RMK A01 T01671017  RH  028%=      5-min Rain = 0
KDC1 250547Z 28006KT 17/M01 A2979 RMK A01 T01701014  RH  029%=      5-min Rain = 0
KDC1 250548Z 28007KT 17/M01 A2979 RMK A01 T01701009  RH  029%=      5-min Rain = 0
KDC1 250549Z 29006KT 17/M01 A2979 RMK A01 T01681007  RH  030%=      5-min Rain = 0
KDC1 250550Z 29007KT 16/M00 A2979 RMK A01 T01641003  RH  032%=      5-min Rain = 0
KDC1 250551Z 28007KT 16/M00 A2979 RMK A01 T01611002  RH  033%=      5-min Rain = 0
KDC1 250552Z 27006KT 16/M01 A298 RMK A01 T01601008  RH  032%=      5-min Rain = 0
KDC1 250553Z 28006KT 16/M01 A298 RMK A01 T01631008  RH  031%=      5-min Rain = 0
KDC1 250554Z 29005KT 16/M00 A298 RMK A01 T01641003  RH  032%=      5-min Rain = 0
KDC1 250555Z 31005KT 16/00 A298 RMK A01 T01610001  RH  034%=      5-min Rain = 0
KDC1 250556Z 30005KT 16/00 A298 RMK A01 T01560003  RH  035%=      5-min Rain = 0
KDC1 250557Z 29006KT 15/01 A298 RMK A01 T01520005  RH  037%=      5-min Rain = 0
KDC1 250558Z 29005KT 15/00 A298 RMK A01 T01500001  RH  036%=      5-min Rain = 0
KDC1 250559Z 31005KT 15/M00 A298 RMK A01 T01491004  RH  035%=      5-min Rain = 0
KDC1 250600Z 31006KT 15/M00 A298 RMK A01 T01501001  RH  036%=      5-min Rain = 0
KDC1 250601Z 30007KT 15/00 A298 RMK A01 T014900-0  RH  036%=      5-min Rain = 0
KDC1 250602Z 29006KT 15/M01 A298 RMK A01 T01481005  RH  035%=      5-min Rain = 0
KDC1 250603Z 30006KT 15/M01 A298 RMK A01 T01491009  RH  034%=      5-min Rain = 0
KDC1 250604Z 30006KT 15/M01 A298 RMK A01 T01501012  RH  033%=      5-min Rain = 0
KDC1 250605Z 30006KT 15/M01 A298 RMK A01 T01521014  RH  032%=      5-min Rain = 0
KDC1 250606Z 29006KT 16/M02 A298 RMK A01 T01551019  RH  030%=      5-min Rain = 0
KDC1 250607Z 29006KT 16/M02 A298 RMK A01 T01581021  RH  029%=      5-min Rain = 0
KDC1 250608Z 30006KT 16/M02 A298 RMK A01 T01611022  RH  029%=      5-min Rain = 0
KDC1 250609Z 30006KT 16/M02 A298 RMK A01 T01621015  RH  030%=      5-min Rain = 0
KDC1 250610Z 30006KT 16/M01 A298 RMK A01 T01611010  RH  031%=      5-min Rain = 0
KDC1 250611Z 30007KT 16/M01 A298 RMK A01 T01591011  RH  031%=      5-min Rain = 0
KDC1 250612Z 29007KT 16/M02 A298 RMK A01 T01581015  RH  031%=      5-min Rain = 0
KDC1 250613Z 29008KT 16/M02 A298 RMK A01 T01591018  RH  030%=      5-min Rain = 0
KDC1 250614Z 29007KT 16/M02 A298 RMK A01 T01621020  RH  029%=      5-min Rain = 0
KDC1 250615Z 29007KT 17/M02 A298 RMK A01 T01651020  RH  028%=      5-min Rain = 0
KDC1 250616Z 29007KT 17/M02 A298 RMK A01 T01671021  RH  028%=      5-min Rain = 0
KDC1 250617Z 28007KT 17/M02 A2981 RMK A01 T01701024  RH  026%=      5-min Rain = 0
KDC1 250618Z 29007KT 17/M02 A2981 RMK A01 T01721024  RH  026%=      5-min Rain = 0
KDC1 250619Z 29006KT 17/M02 A298 RMK A01 T01731020  RH  027%=      5-min Rain = 0
KDC1 250620Z 29006KT 17/M02 A298 RMK A01 T01731020  RH  027%=      5-min Rain = 0
KDC1 250621Z 29006KT 17/M02 A298 RMK A01 T01731021  RH  027%=      5-min Rain = 0
KDC1 250622Z 29005KT 17/M02 A298 RMK A01 T01731021  RH  026%=      5-min Rain = 0
KDC1 250623Z 28006KT 18/M02 A298 RMK A01 T01751021  RH  026%=      5-min Rain = 0
KDC1 250624Z 28005KT 18/M02 A298 RMK A01 T01751022  RH  026%=      5-min Rain = 0
KDC1 250625Z 29005KT 18/M02 A298 RMK A01 T01761024  RH  026%=      5-min Rain = 0
KDC1 250626Z 29005KT 18/M02 A298 RMK A01 T01771021  RH  026%=      5-min Rain = 0
KDC1 250627Z 28005KT 18/M02 A298 RMK A01 T01761024  RH  025%=      5-min Rain = 0
KDC1 250628Z 28005KT 18/M03 A298 RMK A01 T01771029  RH  024%=      5-min Rain = 0
KDC1 250629Z 29004KT 18/M03 A298 RMK A01 T01791029  RH  024%=      5-min Rain = 0
KDC1 250630Z 29004KT 18/M03 A298 RMK A01 T01801025  RH  025%=      5-min Rain = 0
KDC1 250631Z 27003KT 18/M03 A298 RMK A01 T01801025  RH  025%=      5-min Rain = 0
KDC1 250632Z 27002KT 18/M02 A298 RMK A01 T01791018  RH  026%=      5-min Rain = 0
KDC1 250633Z 26001KT 18/M01 A2981 RMK A01 T01771012  RH  028%=      5-min Rain = 0
KDC1 250634Z 10001KT 18/M01 A2981 RMK A01 T01751012  RH  028%=      5-min Rain = 0
KDC1 250635Z 10003KT 17/M01 A2981 RMK A01 T01691012  RH  029%=      5-min Rain = 0
KDC1 250636Z 10004KT 16/00 A2981 RMK A01 T01630000  RH  033%=      5-min Rain = 0
KDC1 250637Z 10004KT 16/01 A2981 RMK A01 T01590008  RH  036%=      5-min Rain = 0
KDC1 250638Z 09005KT 16/01 A2981 RMK A01 T01550008  RH  037%=      5-min Rain = 0
KDC1 250639Z 08005KT 15/01 A2981 RMK A01 T01520011  RH  038%=      5-min Rain = 0
KDC1 250640Z 08005KT 15/01 A2981 RMK A01 T01500011  RH  039%=      5-min Rain = 0
KDC1 250641Z 09005KT 15/01 A2981 RMK A01 T01480010  RH  039%=      5-min Rain = 0
KDC1 250642Z 09005KT 15/01 A2982 RMK A01 T01480012  RH  040%=      5-min Rain = 0
KDC1 250643Z 10007KT 15/01 A2982 RMK A01 T01490012  RH  039%=      5-min Rain = 0
KDC1 250644Z 09007KT 15/01 A2982 RMK A01 T01510011  RH  039%=      5-min Rain = 0
KDC1 250645Z 10009KT 15/01 A2982 RMK A01 T01520010  RH  038%=      5-min Rain = 0
KDC1 250646Z 09008KT 16/01 A2982 RMK A01 T01550008  RH  037%=      5-min Rain = 0
KDC1 250647Z 09008KT 16/01 A2982 RMK A01 T01560012  RH  038%=      5-min Rain = 0
KDC1 250648Z 09008KT 16/01 A2982 RMK A01 T01560009  RH  037%=      5-min Rain = 0
KDC1 250649Z 09009KT 16/M00 A2982 RMK A01 T01561002  RH  034%=      5-min Rain = 0
KDC1 250650Z 09007KT 16/M01 A2982 RMK A01 T01581007  RH  032%=      5-min Rain = 0
KDC1 250651Z 09007KT 16/M01 A2982 RMK A01 T01601009  RH  031%=      5-min Rain = 0
KDC1 250652Z 08005KT 16/M01 A2982 RMK A01 T01631010  RH  031%=      5-min Rain = 0
KDC1 250653Z 08007KT 16/M01 A2982 RMK A01 T01611009  RH  031%=      5-min Rain = 0
KDC1 250654Z 08007KT 16/M01 A2982 RMK A01 T01581010  RH  032%=      5-min Rain = 0
KDC1 250655Z 08007KT 16/M01 A2982 RMK A01 T01591011  RH  031%=      5-min Rain = 0
KDC1 250656Z 07006KT 16/M01 A2982 RMK A01 T01601009  RH  031%=      5-min Rain = 0
KDC1 250657Z 06005KT 16/M01 A2982 RMK A01 T01611013  RH  030%=      5-min Rain = 0
KDC1 250658Z 09004KT 16/M01 A2982 RMK A01 T01631010  RH  031%=      5-min Rain = 0
KDC1 250659Z 10004KT 16/M01 A2982 RMK A01 T01631009  RH  031%=      5-min Rain = 0
KDC1 250700Z 11003KT 16/M01 A2982 RMK A01 T01641011  RH  030%=      5-min Rain = 0
KDC1 250701Z 11003KT 17/M01 A2982 RMK A01 T01651014  RH  029%=      5-min Rain = 0
KDC1 250702Z 12003KT 17/M02 A2982 RMK A01 T01671015  RH  029%=      5-min Rain = 0
KDC1 250703Z 13003KT 17/M01 A2982 RMK A01 T01681012  RH  029%=      5-min Rain = 0
KDC1 250704Z 13004KT 17/M02 A2982 RMK A01 T01681015  RH  029%=      5-min Rain = 0
KDC1 250705Z 13003KT 17/M02 A2982 RMK A01 T01701015  RH  028%=      5-min Rain = 0
KDC1 250706Z 11005KT 17/M02 A2982 RMK A01 T01711015  RH  028%=      5-min Rain = 0
KDC1 250707Z 11006KT 17/M01 A2982 RMK A01 T01721007  RH  030%=      5-min Rain = 0
KDC1 250708Z 10006KT 17/M00 A2982 RMK A01 T01711001  RH  031%=      5-min Rain = 0
KDC1 250709Z 10006KT 17/00 A2982 RMK A01 T01680003  RH  033%=      5-min Rain = 0
KDC1 250710Z 08004KT 17/00 A2982 RMK A01 T01660001  RH  033%=      5-min Rain = 0
KDC1 250711Z 10003KT 17/M01 A2982 RMK A01 T01651005  RH  031%=      5-min Rain = 0
KDC1 250712Z 10004KT 17/M01 A2983 RMK A01 T01651006  RH  031%=      5-min Rain = 0
KDC1 250713Z 10004KT 16/M00 A2982 RMK A01 T01641003  RH  032%=      5-min Rain = 0
KDC1 250714Z 09003KT 16/01 A2982 RMK A01 T01610012  RH  036%=      5-min Rain = 0
KDC1 250715Z 11003KT 16/02 A2982 RMK A01 T01580015  RH  038%=      5-min Rain = 0
KDC1 250716Z 10004KT 16/02 A2983 RMK A01 T01550018  RH  040%=      5-min Rain = 0
KDC1 250717Z 10002KT 15/02 A2983 RMK A01 T01520018  RH  040%=      5-min Rain = 0
KDC1 250718Z 11002KT 15/01 A2983 RMK A01 T01510013  RH  039%=      5-min Rain = 0
KDC1 250719Z 12004KT 15/01 A2983 RMK A01 T01510011  RH  039%=      5-min Rain = 0
KDC1 250720Z 11005KT 15/01 A2982 RMK A01 T01510010  RH  038%=      5-min Rain = 0
KDC1 250721Z 10005KT 15/01 A2982 RMK A01 T01490013  RH  040%=      5-min Rain = 0
KDC1 250722Z 11004KT 15/02 A2982 RMK A01 T01480015  RH  040%=      5-min Rain = 0
KDC1 250723Z 12004KT 15/01 A2982 RMK A01 T01470010  RH  039%=      5-min Rain = 0
KDC1 250724Z 13005KT 15/00 A2982 RMK A01 T01480002  RH  037%=      5-min Rain = 0
KDC1 250725Z 13005KT 15/M00 A2982 RMK A01 T01511004  RH  034%=      5-min Rain = 0
KDC1 250726Z 14004KT 16/M01 A2982 RMK A01 T01561005  RH  033%=      5-min Rain = 0
KDC1 250727Z 15005KT 16/M00 A2982 RMK A01 T01581004  RH  033%=      5-min Rain = 0
KDC1 250728Z 16006KT 16/M01 A2982 RMK A01 T01591009  RH  032%=      5-min Rain = 0
KDC1 250729Z 17006KT 16/M01 A2982 RMK A01 T01611007  RH  032%=      5-min Rain = 0
KDC1 250730Z 17006KT 16/M00 A2982 RMK A01 T01601004  RH  033%=      5-min Rain = 0
KDC1 250731Z 16006KT 16/M01 A2982 RMK A01 T01591005  RH  033%=      5-min Rain = 0
KDC1 250732Z 16006KT 16/M00 A2982 RMK A01 T01591004  RH  033%=      5-min Rain = 0
KDC1 250733Z 16005KT 16/M00 A2982 RMK A01 T01591004  RH  033%=      5-min Rain = 0
KDC1 250734Z 17006KT 16/M01 A2982 RMK A01 T01591005  RH  033%=      5-min Rain = 0
KDC1 250735Z 17004KT 16/M01 A2982 RMK A01 T01601010  RH  031%=      5-min Rain = 0
KDC1 250736Z 17004KT 16/M01 A2982 RMK A01 T01621009  RH  031%=      5-min Rain = 0
KDC1 250737Z 17004KT 16/M01 A2982 RMK A01 T01641012  RH  030%=      5-min Rain = 0
KDC1 250738Z 17004KT 17/M01 A2982 RMK A01 T01651012  RH  030%=      5-min Rain = 0
KDC1 250739Z 17005KT 17/M01 A2982 RMK A01 T01661011  RH  030%=      5-min Rain = 0
KDC1 250740Z 17004KT 17/M01 A2982 RMK A01 T01671008  RH  030%=      5-min Rain = 0
KDC1 250741Z 16005KT 17/M01 A2982 RMK A01 T01661011  RH  030%=      5-min Rain = 0
KDC1 250742Z 16005KT 17/M01 A2982 RMK A01 T01671014  RH  029%=      5-min Rain = 0
KDC1 250743Z 16005KT 17/M02 A2982 RMK A01 T01681016  RH  028%=      5-min Rain = 0
KDC1 250744Z 16005KT 17/M01 A2982 RMK A01 T01701012  RH  029%=      5-min Rain = 0
KDC1 250745Z 16005KT 17/M01 A2982 RMK A01 T01701005  RH  031%=      5-min Rain = 0
KDC1 250746Z 16005KT 17/M00 A2982 RMK A01 T01681001  RH  032%=      5-min Rain = 0
KDC1 250747Z 16004KT 17/M00 A2982 RMK A01 T01661001  RH  032%=      5-min Rain = 0
KDC1 250748Z 15005KT 17/00 A2982 RMK A01 T01650002  RH  033%=      5-min Rain = 0
KDC1 250749Z 15005KT 16/01 A2982 RMK A01 T01640007  RH  035%=      5-min Rain = 0
KDC1 250750Z 15005KT 16/01 A2982 RMK A01 T01610011  RH  036%=      5-min Rain = 0
KDC1 250751Z 16005KT 16/02 A2982 RMK A01 T01580017  RH  039%=      5-min Rain = 0
KDC1 250752Z 16004KT 15/02 A2982 RMK A01 T01540020  RH  040%=      5-min Rain = 0
KDC1 250753Z 16005KT 15/02 A2982 RMK A01 T01510016  RH  040%=      5-min Rain = 0
KDC1 250754Z 18003KT 15/01 A2982 RMK A01 T01510005  RH  037%=      5-min Rain = 0
KDC1 250755Z 18004KT 15/M00 A2982 RMK A01 T01531002  RH  035%=      5-min Rain = 0
KDC1 250756Z 18003KT 16/M00 A2982 RMK A01 T01571001  RH  034%=      5-min Rain = 0
KDC1 250757Z 19003KT 16/00 A2982 RMK A01 T01590001  RH  034%=      5-min Rain = 0
KDC1 250758Z 19004KT 16/M01 A2982 RMK A01 T01601006  RH  032%=      5-min Rain = 0
KDC1 250759Z 19003KT 16/M01 A2982 RMK A01 T01621008  RH  031%=      5-min Rain = 0
KDC1 250800Z 17003KT 16/M01 A2982 RMK A01 T01641011  RH  030%=      5-min Rain = 0
KDC1 250801Z 18004KT 17/M01 A2982 RMK A01 T01651013  RH  030%=      5-min Rain = 0
KDC1 250802Z 17004KT 17/M01 A2982 RMK A01 T01681014  RH  029%=      5-min Rain = 0
KDC1 250803Z 18004KT 17/M01 A2982 RMK A01 T01701014  RH  029%=      5-min Rain = 0
KDC1 250804Z 16004KT 17/M02 A2982 RMK A01 T01711015  RH  028%=      5-min Rain = 0
KDC1 250805Z 16006KT 17/M01 A2982 RMK A01 T01721013  RH  028%=      5-min Rain = 0
KDC1 250806Z 15005KT 17/00 A2982 RMK A01 T01720000  RH  031%=      5-min Rain = 0
KDC1 250807Z 15005KT 17/M00 A2982 RMK A01 T01691001  RH  031%=      5-min Rain = 0
KDC1 250808Z 15007KT 17/M00 A2982 RMK A01 T01671002  RH  032%=      5-min Rain = 0
KDC1 250809Z 15007KT 17/00 A2982 RMK A01 T01660001  RH  033%=      5-min Rain = 0
KDC1 250810Z 17005KT 16/01 A2982 RMK A01 T01630006  RH  034%=      5-min Rain = 0
KDC1 250811Z 17003KT 16/00 A2982 RMK A01 T01600004  RH  035%=      5-min Rain = 0
KDC1 250812Z 17005KT 16/M00 A2982 RMK A01 T01601004  RH  033%=      5-min Rain = 0
KDC1 250813Z 17005KT 16/M01 A2982 RMK A01 T01621009  RH  031%=      5-min Rain = 0
KDC1 250814Z 15006KT 16/M00 A2982 RMK A01 T01631002  RH  033%=      5-min Rain = 0
KDC1 250815Z 15007KT 16/00 A2982 RMK A01 T01620000  RH  033%=      5-min Rain = 0
KDC1 250816Z 15006KT 16/00 A2982 RMK A01 T01600004  RH  034%=      5-min Rain = 0
KDC1 250817Z 15007KT 16/01 A2982 RMK A01 T01580005  RH  035%=      5-min Rain = 0
KDC1 250818Z 15007KT 16/00 A2982 RMK A01 T01560004  RH  035%=      5-min Rain = 0
KDC1 250819Z 15006KT 15/01 A2982 RMK A01 T01540007  RH  037%=      5-min Rain = 0
KDC1 250820Z 15005KT 15/01 A2982 RMK A01 T01510010  RH  038%=      5-min Rain = 0
KDC1 250821Z 15005KT 15/01 A2981 RMK A01 T01490010  RH  039%=      5-min Rain = 0
KDC1 250822Z 15004KT 15/01 A2981 RMK A01 T01480010  RH  039%=      5-min Rain = 0
KDC1 250823Z 15004KT 15/01 A2981 RMK A01 T01460009  RH  039%=      5-min Rain = 0
KDC1 250824Z 15004KT 15/01 A2981 RMK A01 T01460008  RH  039%=      5-min Rain = 0
KDC1 250825Z 15004KT 15/01 A2981 RMK A01 T01460007  RH  039%=      5-min Rain = 0
KDC1 250826Z 15005KT 15/01 A2981 RMK A01 T01460008  RH  039%=      5-min Rain = 0
KDC1 250827Z 15005KT 15/01 A2981 RMK A01 T01460006  RH  038%=      5-min Rain = 0
KDC1 250828Z 16004KT 15/01 A2981 RMK A01 T01470005  RH  038%=      5-min Rain = 0
KDC1 250829Z 16004KT 15/00 A2981 RMK A01 T01480001  RH  036%=      5-min Rain = 0
KDC1 250830Z 17005KT 15/M00 A2981 RMK A01 T01511001  RH  035%=      5-min Rain = 0
KDC1 250831Z 17006KT 15/M00 A2981 RMK A01 T01531004  RH  034%=      5-min Rain = 0
KDC1 250832Z 17006KT 15/M00 A2981 RMK A01 T01541003  RH  034%=      5-min Rain = 0
KDC1 250833Z 17005KT 15/M00 A2981 RMK A01 T01541001  RH  035%=      5-min Rain = 0
KDC1 250834Z 17004KT 15/M01 A2981 RMK A01 T01541007  RH  033%=      5-min Rain = 0
KDC1 250835Z 17003KT 15/M01 A2981 RMK A01 T01541013  RH  032%=      5-min Rain = 0
KDC1 250836Z 16005KT 16/M02 A2981 RMK A01 T01551016  RH  031%=      5-min Rain = 0
KDC1 250837Z 17003KT 16/M02 A2981 RMK A01 T01561017  RH  031%=      5-min Rain = 0
KDC1 250838Z 17002KT 16/M01 A2981 RMK A01 T01561009  RH  032%=      5-min Rain = 0
KDC1 250839Z 17002KT 16/M01 A2981 RMK A01 T01561005  RH  033%=      5-min Rain = 0
KDC1 250840Z 17003KT 15/M00 A2981 RMK A01 T01541004  RH  034%=      5-min Rain = 0
KDC1 250841Z 17003KT 15/M01 A2981 RMK A01 T01531005  RH  034%=      5-min Rain = 0
KDC1 250842Z 17003KT 15/M00 A2981 RMK A01 T01521001  RH  035%=      5-min Rain = 0
KDC1 250843Z 18002KT 15/M00 A2981 RMK A01 T01521004  RH  034%=      5-min Rain = 0
KDC1 250844Z 19002KT 15/M01 A2981 RMK A01 T01511011  RH  033%=      5-min Rain = 0
KDC1 250845Z 19002KT 15/M01 A2981 RMK A01 T01511011  RH  033%=      5-min Rain = 0
KDC1 250846Z 19002KT 15/M00 A2981 RMK A01 T01521003  RH  035%=      5-min Rain = 0
KDC1 250847Z 18002KT 15/00 A2981 RMK A01 T01510002  RH  036%=      5-min Rain = 0
KDC1 250848Z 19001KT 15/01 A2981 RMK A01 T01490007  RH  038%=      5-min Rain = 0
KDC1 250849Z 19001KT 15/01 A2981 RMK A01 T01450014  RH  041%=      5-min Rain = 0
KDC1 250850Z 22000KT 14/01 A2981 RMK A01 T01390010  RH  041%=      5-min Rain = 0
KDC1 250851Z 21001KT 13/01 A2981 RMK A01 T01340012  RH  043%=      5-min Rain = 0
KDC1 250852Z 23002KT 13/01 A2981 RMK A01 T01310012  RH  044%=      5-min Rain = 0
KDC1 250853Z 21003KT 13/01 A2981 RMK A01 T01330014  RH  044%=      5-min Rain = 0
KDC1 250854Z 19002KT 13/01 A2981 RMK A01 T01340014  RH  044%=      5-min Rain = 0
KDC1 250855Z 20002KT 14/01 A2981 RMK A01 T01360014  RH  043%=      5-min Rain = 0
KDC1 250856Z 19001KT 14/01 A2981 RMK A01 T01360014  RH  043%=      5-min Rain = 0
KDC1 250857Z 19001KT 13/01 A2981 RMK A01 T01330013  RH  044%=      5-min Rain = 0
KDC1 250858Z 21001KT 13/01 A2981 RMK A01 T01330012  RH  044%=      5-min Rain = 0
KDC1 250859Z 22001KT 13/01 A2981 RMK A01 T01320012  RH  044%=      5-min Rain = 0
KDC1 250900Z 22000KT 13/01 A2981 RMK A01 T01310014  RH  045%=      5-min Rain = 0
KDC1 250901Z 23001KT 13/02 A2981 RMK A01 T01300018  RH  047%=      5-min Rain = 0
KDC1 250902Z 27001KT 13/02 A2981 RMK A01 T01290020  RH  047%=      5-min Rain = 0
KDC1 250903Z 30002KT 13/02 A2981 RMK A01 T01250022  RH  049%=      5-min Rain = 0
KDC1 250904Z 34006KT 12/02 A2981 RMK A01 T01200023  RH  051%=      5-min Rain = 0
KDC1 250905Z 34005KT 12/02 A2981 RMK A01 T01180023  RH  052%=      5-min Rain = 0
KDC1 250906Z 33005KT 12/02 A2981 RMK A01 T01180021  RH  052%=      5-min Rain = 0
KDC1 250907Z 32004KT 12/02 A2981 RMK A01 T01190019  RH  050%=      5-min Rain = 0
KDC1 250908Z 32005KT 12/02 A2981 RMK A01 T01200019  RH  050%=      5-min Rain = 0
KDC1 250909Z 33006KT 12/02 A2981 RMK A01 T01190022  RH  051%=      5-min Rain = 0
KDC1 250910Z 34006KT 12/02 A2981 RMK A01 T01160021  RH  052%=      5-min Rain = 0
KDC1 250911Z 34006KT 11/02 A2981 RMK A01 T01140020  RH  052%=      5-min Rain = 0
KDC1 250912Z 33005KT 11/02 A2981 RMK A01 T01140017  RH  051%=      5-min Rain = 0
KDC1 250913Z 35006KT 11/02 A2981 RMK A01 T01140016  RH  051%=      5-min Rain = 0
KDC1 250914Z 35006KT 11/02 A2981 RMK A01 T01140016  RH  051%=      5-min Rain = 0
KDC1 250915Z 35005KT 11/02 A2981 RMK A01 T01140016  RH  051%=      5-min Rain = 0
KDC1 250916Z 34006KT 11/02 A2981 RMK A01 T01140016  RH  051%=      5-min Rain = 0
KDC1 250917Z 33007KT 11/02 A2981 RMK A01 T01130016  RH  051%=      5-min Rain = 0
KDC1 250918Z 32007KT 11/02 A2981 RMK A01 T01130019  RH  052%=      5-min Rain = 0
KDC1 250919Z 32006KT 11/02 A2981 RMK A01 T01110022  RH  054%=      5-min Rain = 0
KDC1 250920Z 34006KT 11/02 A2981 RMK A01 T01080019  RH  054%=      5-min Rain = 0
KDC1 250921Z 34006KT 11/02 A2981 RMK A01 T01080016  RH  053%=      5-min Rain = 0
KDC1 250922Z 34007KT 11/02 A2981 RMK A01 T01090015  RH  052%=      5-min Rain = 0
KDC1 250923Z 34008KT 11/01 A2981 RMK A01 T01090014  RH  052%=      5-min Rain = 0
KDC1 250924Z 35007KT 11/01 A2981 RMK A01 T01100011  RH  050%=      5-min Rain = 0
KDC1 250925Z 35006KT 11/01 A2981 RMK A01 T01120011  RH  050%=      5-min Rain = 0
KDC1 250926Z 34006KT 11/01 A2981 RMK A01 T01120010  RH  049%=      5-min Rain = 0
KDC1 250927Z 34006KT 11/01 A2981 RMK A01 T01130012  RH  050%=      5-min Rain = 0
KDC1 250928Z 34005KT 11/01 A2981 RMK A01 T01120012  RH  050%=      5-min Rain = 0
KDC1 250929Z 34005KT 11/01 A2981 RMK A01 T01110014  RH  051%=      5-min Rain = 0
KDC1 250930Z 33006KT 11/02 A2981 RMK A01 T01090015  RH  052%=      5-min Rain = 0
KDC1 250931Z 33006KT 11/01 A2981 RMK A01 T01080014  RH  052%=      5-min Rain = 0
KDC1 250932Z 34006KT 11/01 A2981 RMK A01 T01080013  RH  052%=      5-min Rain = 0
KDC1 250933Z 36007KT 11/01 A2982 RMK A01 T01080011  RH  051%=      5-min Rain = 0
KDC1 250934Z 00008KT 11/01 A2982 RMK A01 T01100009  RH  050%=      5-min Rain = 0
KDC1 250935Z 00010KT 11/00 A2982 RMK A01 T01130001  RH  046%=      5-min Rain = 0
KDC1 250936Z 36010KT 12/M01 A2982 RMK A01 T01181007  RH  042%=      5-min Rain = 0
KDC1 250937Z 35009KT 12/M01 A2982 RMK A01 T01221013  RH  039%=      5-min Rain = 0
KDC1 250938Z 35008KT 13/M02 A2982 RMK A01 T01261015  RH  037%=      5-min Rain = 0
KDC1 250939Z 35008KT 13/M02 A2982 RMK A01 T01291015  RH  037%=      5-min Rain = 0
KDC1 250940Z 35008KT 13/M01 A2982 RMK A01 T01311014  RH  037%=      5-min Rain = 0
KDC1 250941Z 35008KT 13/M02 A2982 RMK A01 T01321016  RH  036%=      5-min Rain = 0
KDC1 250942Z 35008KT 13/M02 A2982 RMK A01 T01341019  RH  035%=      5-min Rain = 0
KDC1 250943Z 35008KT 14/M02 A2982 RMK A01 T01371019  RH  034%=      5-min Rain = 0
KDC1 250944Z 35008KT 14/M02 A2982 RMK A01 T01381019  RH  034%=      5-min Rain = 0
KDC1 250945Z 36007KT 14/M02 A2981 RMK A01 T01391020  RH  033%=      5-min Rain = 0
KDC1 250946Z 36007KT 14/M02 A2981 RMK A01 T01411021  RH  033%=      5-min Rain = 0
KDC1 250947Z 36006KT 14/M02 A2981 RMK A01 T01411022  RH  032%=      5-min Rain = 0
KDC1 250948Z 35006KT 14/M02 A2981 RMK A01 T01421022  RH  032%=      5-min Rain = 0
KDC1 250949Z 34005KT 14/M02 A2981 RMK A01 T01421019  RH  033%=      5-min Rain = 0
KDC1 250950Z 34006KT 14/M01 A2982 RMK A01 T01371013  RH  036%=      5-min Rain = 0
KDC1 250951Z 35008KT 13/M01 A2982 RMK A01 T01321012  RH  037%=      5-min Rain = 0
KDC1 250952Z 35009KT 13/M01 A2982 RMK A01 T01311013  RH  037%=      5-min Rain = 0
KDC1 250953Z 35008KT 13/M01 A2982 RMK A01 T01311014  RH  037%=      5-min Rain = 0
KDC1 250954Z 35008KT 13/M02 A2982 RMK A01 T01311016  RH  036%=      5-min Rain = 0
KDC1 250955Z 35008KT 13/M02 A2982 RMK A01 T01321016  RH  036%=      5-min Rain = 0
KDC1 250956Z 34008KT 13/M01 A2982 RMK A01 T01321014  RH  036%=      5-min Rain = 0
KDC1 250957Z 34008KT 13/M01 A2982 RMK A01 T01321013  RH  037%=      5-min Rain = 0
KDC1 250958Z 34008KT 13/M01 A2982 RMK A01 T01311012  RH  037%=      5-min Rain = 0
KDC1 250959Z 34008KT 13/M01 A2982 RMK A01 T01301013  RH  037%=      5-min Rain = 0
KDC1 251000Z 34008KT 13/M01 A2982 RMK A01 T01291011  RH  038%=      5-min Rain = 0
KDC1 251001Z 34008KT 13/M01 A2982 RMK A01 T01271014  RH  038%=      5-min Rain = 0
KDC1 251002Z 33008KT 13/M02 A2982 RMK A01 T01271017  RH  037%=      5-min Rain = 0
KDC1 251003Z 33008KT 13/M01 A2982 RMK A01 T01271014  RH  038%=      5-min Rain = 0
KDC1 251004Z 33008KT 13/M01 A2982 RMK A01 T01261010  RH  039%=      5-min Rain = 0
KDC1 251005Z 33007KT 12/M01 A2982 RMK A01 T01231009  RH  040%=      5-min Rain = 0
KDC1 251006Z 34007KT 12/M01 A2982 RMK A01 T01211010  RH  040%=      5-min Rain = 0
KDC1 251007Z 34007KT 12/M01 A2982 RMK A01 T01201010  RH  040%=      5-min Rain = 0
KDC1 251008Z 34008KT 12/M01 A2982 RMK A01 T01201012  RH  040%=      5-min Rain = 0
KDC1 251009Z 32006KT 12/M01 A2982 RMK A01 T01211009  RH  041%=      5-min Rain = 0
KDC1 251010Z 33006KT 12/M00 A2982 RMK A01 T01201004  RH  042%=      5-min Rain = 0
KDC1 251011Z 33006KT 12/M00 A2982 RMK A01 T01181004  RH  043%=      5-min Rain = 0
KDC1 251012Z 32006KT 12/M00 A2982 RMK A01 T01181004  RH  043%=      5-min Rain = 0
KDC1 251013Z 32006KT 12/M00 A2982 RMK A01 T01181004  RH  043%=      5-min Rain = 0
KDC1 251014Z 30007KT 12/M01 A2982 RMK A01 T01191005  RH  042%=      5-min Rain = 0
KDC1 251015Z 30006KT 12/M00 A2982 RMK A01 T01201002  RH  043%=      5-min Rain = 0
KDC1 251016Z 29007KT 12/M00 A2981 RMK A01 T01191001  RH  044%=      5-min Rain = 0
KDC1 251017Z 30007KT 12/01 A2981 RMK A01 T01190005  RH  046%=      5-min Rain = 0
KDC1 251018Z 29008KT 12/01 A2981 RMK A01 T01190005  RH  045%=      5-min Rain = 0
KDC1 251019Z 28009KT 12/01 A2981 RMK A01 T01190006  RH  046%=      5-min Rain = 0
KDC1 251020Z 28009KT 12/01 A2981 RMK A01 T01180006  RH  046%=      5-min Rain = 0
KDC1 251021Z 29009KT 12/01 A2981 RMK A01 T01180005  RH  046%=      5-min Rain = 0
KDC1 251022Z 29009KT 12/00 A2981 RMK A01 T01180002  RH  045%=      5-min Rain = 0
KDC1 251023Z 28010KT 12/00 A2981 RMK A01 T01190001  RH  044%=      5-min Rain = 0
KDC1 251024Z 28011KT 12/00 A2981 RMK A01 T011900-0  RH  044%=      5-min Rain = 0
KDC1 251025Z 28011KT 12/M00 A2981 RMK A01 T01201002  RH  043%=      5-min Rain = 0
KDC1 251026Z 28011KT 12/M00 A2981 RMK A01 T01201003  RH  043%=      5-min Rain = 0
KDC1 251027Z 28011KT 12/M01 A2981 RMK A01 T01201006  RH  042%=      5-min Rain = 0
KDC1 251028Z 28011KT 12/M01 A2981 RMK A01 T01211008  RH  041%=      5-min Rain = 0
KDC1 251029Z 28011KT 12/M01 A2981 RMK A01 T01231009  RH  040%=      5-min Rain = 0
KDC1 251030Z 28011KT 12/M01 A2981 RMK A01 T01241010  RH  040%=      5-min Rain = 0
KDC1 251031Z 28011KT 13/M01 A2981 RMK A01 T01251009  RH  039%=      5-min Rain = 0
KDC1 251032Z 28011KT 13/M01 A2981 RMK A01 T01261007  RH  040%=      5-min Rain = 0
KDC1 251033Z 28010KT 13/M01 A2981 RMK A01 T01271005  RH  040%=      5-min Rain = 0
KDC1 251034Z 28011KT 13/M00 A2981 RMK A01 T01271004  RH  041%=      5-min Rain = 0
KDC1 251035Z 28011KT 13/M00 A2981 RMK A01 T01271004  RH  041%=      5-min Rain = 0
KDC1 251036Z 28011KT 13/M01 A2981 RMK A01 T01281005  RH  040%=      5-min Rain = 0
KDC1 251037Z 28011KT 13/M01 A2982 RMK A01 T01301006  RH  039%=      5-min Rain = 0
KDC1 251038Z 29012KT 13/M01 A2982 RMK A01 T01321008  RH  038%=      5-min Rain = 0
KDC1 251039Z 29011KT 14/M01 A2982 RMK A01 T01351009  RH  037%=      5-min Rain = 0
KDC1 251040Z 30010KT 14/M01 A2982 RMK A01 T01361010  RH  037%=      5-min Rain = 0
KDC1 251041Z 31010KT 14/M01 A2982 RMK A01 T01361010  RH  036%=      5-min Rain = 0
KDC1 251042Z 32009KT 14/M01 A2982 RMK A01 T01351014  RH  036%=      5-min Rain = 0
KDC1 251043Z 35009KT 14/M02 A2983 RMK A01 T01351021  RH  034%=      5-min Rain = 0
KDC1 251044Z 02009KT 14/M02 A2984 RMK A01 T01361022  RH  034%=      5-min Rain = 0
KDC1 251045Z 04010KT 14/M01 A2984 RMK A01 T01351014  RH  036%=      5-min Rain = 0
KDC1 251046Z 03009KT 13/M02 A2984 RMK A01 T01321016  RH  036%=      5-min Rain = 0
KDC1 251047Z 03009KT 13/M02 A2984 RMK A01 T01311023  RH  034%=      5-min Rain = 0
KDC1 251048Z 02008KT 13/M03 A2984 RMK A01 T01311029  RH  033%=      5-min Rain = 0
KDC1 251049Z 00007KT 13/M03 A2984 RMK A01 T01321031  RH  032%=      5-min Rain = 0
KDC1 251050Z 00008KT 13/M03 A2984 RMK A01 T01321033  RH  032%=      5-min Rain = 0
KDC1 251051Z 00007KT 13/M03 A2984 RMK A01 T01331034  RH  031%=      5-min Rain = 0
KDC1 251052Z 36007KT 13/M03 A2984 RMK A01 T01341032  RH  031%=      5-min Rain = 0
KDC1 251053Z 36008KT 13/M03 A2984 RMK A01 T01341030  RH  032%=      5-min Rain = 0
KDC1 251054Z 34008KT 14/M03 A2984 RMK A01 T01351029  RH  032%=      5-min Rain = 0
KDC1 251055Z 35009KT 14/M03 A2984 RMK A01 T01361028  RH  032%=      5-min Rain = 0
KDC1 251056Z 35007KT 14/M03 A2984 RMK A01 T01371027  RH  032%=      5-min Rain = 0
KDC1 251057Z 34006KT 14/M03 A2984 RMK A01 T01371027  RH  032%=      5-min Rain = 0
KDC1 251058Z 34007KT 14/M03 A2984 RMK A01 T01371028  RH  032%=      5-min Rain = 0
KDC1 251059Z 34008KT 14/M03 A2984 RMK A01 T01371030  RH  031%=      5-min Rain = 0
KDC1 251100Z 34008KT 14/M03 A2984 RMK A01 T01411030  RH  030%=      5-min Rain = 0
KDC1 251101Z 33009KT 14/M03 A2984 RMK A01 T01421029  RH  031%=      5-min Rain = 0
KDC1 251102Z 34008KT 14/M03 A2984 RMK A01 T01421027  RH  031%=      5-min Rain = 0
KDC1 251103Z 34008KT 14/M03 A2984 RMK A01 T01411026  RH  032%=      5-min Rain = 0
KDC1 251104Z 32005KT 14/M03 A2984 RMK A01 T01401026  RH  032%=      5-min Rain = 0
KDC1 251105Z 33008KT 14/M02 A2984 RMK A01 T01381024  RH  033%=      5-min Rain = 0
KDC1 251106Z 32007KT 14/M02 A2984 RMK A01 T01361022  RH  033%=      5-min Rain = 0
KDC1 251107Z 32008KT 13/M02 A2984 RMK A01 T01331021  RH  034%=      5-min Rain = 0
KDC1 251108Z 33009KT 13/M02 A2985 RMK A01 T01301022  RH  035%=      5-min Rain = 0
KDC1 251109Z 33009KT 13/M02 A2985 RMK A01 T01281023  RH  035%=      5-min Rain = 0
KDC1 251110Z 33008KT 13/M03 A2985 RMK A01 T01281025  RH  034%=      5-min Rain = 0
KDC1 251111Z 34008KT 13/M03 A2985 RMK A01 T01301027  RH  034%=      5-min Rain = 0
KDC1 251112Z 34007KT 13/M03 A2985 RMK A01 T01321027  RH  033%=      5-min Rain = 0
KDC1 251113Z 35007KT 14/M03 A2985 RMK A01 T01351026  RH  033%=      5-min Rain = 0
KDC1 251114Z 35007KT 14/M03 A2985 RMK A01 T01391025  RH  032%=      5-min Rain = 0
KDC1 251115Z 34006KT 14/M02 A2985 RMK A01 T01431020  RH  032%=      5-min Rain = 0
KDC1 251116Z 34007KT 15/M02 A2985 RMK A01 T01471019  RH  032%=      5-min Rain = 0
KDC1 251117Z 35007KT 15/M02 A2985 RMK A01 T01491016  RH  032%=      5-min Rain = 0
KDC1 251118Z 34006KT 15/M01 A2985 RMK A01 T01501014  RH  032%=      5-min Rain = 0
KDC1 251119Z 35006KT 15/M01 A2985 RMK A01 T01501010  RH  034%=      5-min Rain = 0
KDC1 251120Z 35006KT 15/M00 A2985 RMK A01 T01491004  RH  035%=      5-min Rain = 0
KDC1 251121Z 35005KT 15/00 A2985 RMK A01 T01490001  RH  036%=      5-min Rain = 0
KDC1 251122Z 00007KT 15/01 A2985 RMK A01 T01520010  RH  038%=      5-min Rain = 0
KDC1 251123Z 01008KT 16/02 A2986 RMK A01 T01560021  RH  040%=      5-min Rain = 0
KDC1 251124Z 02008KT 16/03 A2986 RMK A01 T01590028  RH  041%=      5-min Rain = 0
KDC1 251125Z 03009KT 16/03 A2986 RMK A01 T01610034  RH  042%=      5-min Rain = 0
KDC1 251126Z 03009KT 17/04 A2986 RMK A01 T01660041  RH  043%=      5-min Rain = 0
KDC1 251127Z 03009KT 17/05 A2986 RMK A01 T01700045  RH  044%=      5-min Rain = 0
KDC1 251128Z 03008KT 17/05 A2986 RMK A01 T01720048  RH  044%=      5-min Rain = 0
KDC1 251129Z 03009KT 17/05 A2986 RMK A01 T01740053  RH  045%=      5-min Rain = 0
KDC1 251130Z 03010KT 18/06 A2986 RMK A01 T01750059  RH  046%=      5-min Rain = 0
KDC1 251131Z 02010KT 18/06 A2986 RMK A01 T01760062  RH  047%=      5-min Rain = 0
KDC1 251132Z 01010KT 18/06 A2986 RMK A01 T01780064  RH  047%=      5-min Rain = 0
KDC1 251133Z 01010KT 18/07 A2986 RMK A01 T01790066  RH  048%=      5-min Rain = 0
KDC1 251134Z 01010G15KT 18/07 A2986 RMK A01 T01790066  RH  048%=      5-min Rain = 0
KDC1 251135Z 01009KT 18/07 A2986 RMK A01 T01790068  RH  048%=      5-min Rain = 0
KDC1 251136Z 01009KT 18/07 A2986 RMK A01 T01790068  RH  048%=      5-min Rain = 0
KDC1 251137Z 01009KT 18/07 A2986 RMK A01 T01780068  RH  049%=      5-min Rain = 0
KDC1 251138Z 01008G13KT 18/07 A2986 RMK A01 T01770068  RH  049%=      5-min Rain = 0
KDC1 251139Z 02009KT 18/07 A2986 RMK A01 T01770068  RH  049%=      5-min Rain = 0
KDC1 251140Z 02009KT 18/07 A2986 RMK A01 T01760067  RH  049%=      5-min Rain = 0
KDC1 251141Z 02008KT 18/07 A2986 RMK A01 T01760066  RH  049%=      5-min Rain = 0
KDC1 251142Z 02008KT 18/07 A2986 RMK A01 T01760065  RH  048%=      5-min Rain = 0
KDC1 251143Z 02008KT 18/06 A2986 RMK A01 T01760064  RH  048%=      5-min Rain = 0
KDC1 251144Z 01008KT 18/06 A2986 RMK A01 T01750064  RH  048%=      5-min Rain = 0
KDC1 251145Z 01007KT 18/06 A2986 RMK A01 T01750063  RH  048%=      5-min Rain = 0
KDC1 251146Z 00007KT 17/06 A2987 RMK A01 T01730062  RH  048%=      5-min Rain = 0
KDC1 251147Z 36007KT 17/06 A2987 RMK A01 T01720062  RH  048%=      5-min Rain = 0
KDC1 251148Z 36008KT 17/06 A2986 RMK A01 T01700062  RH  049%=      5-min Rain = 0
KDC1 251149Z 35007KT 17/06 A2986 RMK A01 T01690061  RH  049%=      5-min Rain = 0
KDC1 251150Z 34009G16KT 17/06 A2986 RMK A01 T01680060  RH  049%=      5-min Rain = 0
KDC1 251151Z 35010KT 17/06 A2986 RMK A01 T01680056  RH  048%=      5-min Rain = 0
KDC1 251152Z 35010KT 17/05 A2986 RMK A01 T01700052  RH  046%=      5-min Rain = 0
KDC1 251153Z 35008KT 17/05 A2986 RMK A01 T01720053  RH  045%=      5-min Rain = 0
KDC1 251154Z 35007KT 17/05 A2987 RMK A01 T01690052  RH  046%=      5-min Rain = 0
KDC1 251155Z 35008KT 17/05 A2987 RMK A01 T01660049  RH  046%=      5-min Rain = 0
KDC1 251156Z 35009KT 16/05 A2987 RMK A01 T01640048  RH  046%=      5-min Rain = 0
KDC1 251157Z 35008KT 16/05 A2987 RMK A01 T01630045  RH  046%=      5-min Rain = 0
KDC1 251158Z 36008KT 16/04 A2987 RMK A01 T01630044  RH  045%=      5-min Rain = 0
KDC1 251159Z 00010KT 16/05 A2987 RMK A01 T01630045  RH  045%=      5-min Rain = 0
KDC1 251200Z 35009KT 16/05 A2987 RMK A01 T01640046  RH  046%=      5-min Rain = 0
KDC1 251201Z 35009KT 16/05 A2987 RMK A01 T01640049  RH  046%=      5-min Rain = 0
KDC1 251202Z 35009KT 16/05 A2987 RMK A01 T01640052  RH  047%=      5-min Rain = 0
KDC1 251203Z 35009KT 16/06 A2987 RMK A01 T01640057  RH  049%=      5-min Rain = 0
KDC1 251204Z 35008KT 17/06 A2987 RMK A01 T01650061  RH  050%=      5-min Rain = 0
KDC1 251205Z 35009KT 17/06 A2987 RMK A01 T01660063  RH  051%=      5-min Rain = 0
KDC1 251206Z 36010KT 17/07 A2987 RMK A01 T01660066  RH  052%=      5-min Rain = 0
KDC1 251207Z 00010KT 17/07 A2987 RMK A01 T01670070  RH  053%=      5-min Rain = 0
KDC1 251208Z 36010KT 17/07 A2987 RMK A01 T01690073  RH  053%=      5-min Rain = 0
KDC1 251209Z 00010KT 17/07 A2987 RMK A01 T01700074  RH  053%=      5-min Rain = 0
KDC1 251210Z 36011KT 17/08 A2987 RMK A01 T01700075  RH  053%=      5-min Rain = 0
KDC1 251211Z 36009KT 17/08 A2987 RMK A01 T01710075  RH  053%=      5-min Rain = 0
KDC1 251212Z 35009KT 17/08 A2987 RMK A01 T01710076  RH  053%=      5-min Rain = 0
KDC1 251213Z 35012KT 17/08 A2987 RMK A01 T01710076  RH  053%=      5-min Rain = 0
KDC1 251214Z 35011KT 17/08 A2987 RMK A01 T01730075  RH  053%=      5-min Rain = 0
KDC1 251215Z 35011KT 17/08 A2987 RMK A01 T01740075  RH  052%=      5-min Rain = 0
KDC1 251216Z 36012KT 17/08 A2987 RMK A01 T01740075  RH  052%=      5-min Rain = 0
KDC1 251217Z 36012KT 17/08 A2987 RMK A01 T01740075  RH  052%=      5-min Rain = 0
KDC1 251218Z 00012KT 17/08 A2988 RMK A01 T01740075  RH  052%=      5-min Rain = 0
KDC1 251219Z 00010KT 17/08 A2988 RMK A01 T01740075  RH  052%=      5-min Rain = 0
KDC1 251220Z 00011KT 17/08 A2988 RMK A01 T01730075  RH  052%=      5-min Rain = 0
KDC1 251221Z 35011KT 17/08 A2988 RMK A01 T01730076  RH  053%=      5-min Rain = 0
KDC1 251222Z 35010KT 17/08 A2988 RMK A01 T01730076  RH  053%=      5-min Rain = 0
KDC1 251223Z 35010KT 17/08 A2988 RMK A01 T01730075  RH  053%=      5-min Rain = 0
KDC1 251224Z 35008KT 17/08 A2988 RMK A01 T01730075  RH  052%=      5-min Rain = 0
KDC1 251225Z 35007G12KT 17/07 A2988 RMK A01 T01730074  RH  052%=      5-min Rain = 0
KDC1 251226Z 36010KT 17/07 A2988 RMK A01 T01730074  RH  052%=      5-min Rain = 0
KDC1 251227Z 00010KT 17/07 A2988 RMK A01 T01730074  RH  052%=      5-min Rain = 0
KDC1 251228Z 36009KT 17/07 A2988 RMK A01 T01730074  RH  052%=      5-min Rain = 0
KDC1 251229Z 00009KT 17/07 A2988 RMK A01 T01730074  RH  052%=      5-min Rain = 0
KDC1 251230Z 00010KT 17/08 A2988 RMK A01 T01730075  RH  052%=      5-min Rain = 0
KDC1 251231Z 36011KT 17/07 A2988 RMK A01 T01730074  RH  052%=      5-min Rain = 0
KDC1 251232Z 00009KT 17/08 A2988 RMK A01 T01740075  RH  052%=      5-min Rain = 0
KDC1 251233Z 00010KT 17/08 A2988 RMK A01 T01730075  RH  053%=      5-min Rain = 0
KDC1 251234Z 00008KT 17/08 A2988 RMK A01 T01730076  RH  053%=      5-min Rain = 0
KDC1 251235Z 00008KT 17/08 A2988 RMK A01 T01720076  RH  053%=      5-min Rain = 0
KDC1 251236Z 00008KT 17/08 A2988 RMK A01 T01710076  RH  053%=      5-min Rain = 0
KDC1 251237Z 00009KT 17/08 A2988 RMK A01 T01710076  RH  054%=      5-min Rain = 0
KDC1 251238Z 00008KT 17/08 A2988 RMK A01 T01710076  RH  054%=      5-min Rain = 0
KDC1 251239Z 00010KT 17/08 A2989 RMK A01 T01710077  RH  054%=      5-min Rain = 0
KDC1 251240Z 00009KT 17/08 A2989 RMK A01 T01710077  RH  054%=      5-min Rain = 0
KDC1 251241Z 00009KT 17/08 A2989 RMK A01 T01710077  RH  054%=      5-min Rain = 0
KDC1 251242Z 00008KT 17/08 A2989 RMK A01 T01710077  RH  054%=      5-min Rain = 0
KDC1 251243Z 00007KT 17/08 A2989 RMK A01 T01710077  RH  054%=      5-min Rain = 0
KDC1 251244Z 00008KT 17/08 A2989 RMK A01 T01710077  RH  054%=      5-min Rain = 0
KDC1 251245Z 00008KT 17/08 A2989 RMK A01 T01710078  RH  054%=      5-min Rain = 0
KDC1 251246Z 00007KT 17/08 A2989 RMK A01 T01710078  RH  054%=      5-min Rain = 0
KDC1 251247Z 00008G13KT 17/08 A2989 RMK A01 T01710078  RH  054%=      5-min Rain = 0
KDC1 251248Z 01008KT 17/08 A2989 RMK A01 T01710077  RH  054%=      5-min Rain = 0
KDC1 251249Z 01007KT 17/08 A2989 RMK A01 T01710077  RH  054%=      5-min Rain = 0
KDC1 251250Z 01008KT 17/08 A2989 RMK A01 T01720077  RH  054%=      5-min Rain = 0
KDC1 251251Z 01008KT 17/08 A2989 RMK A01 T01730077  RH  053%=      5-min Rain = 0
KDC1 251252Z 00009KT 17/08 A2989 RMK A01 T01730078  RH  054%=      5-min Rain = 0
KDC1 251253Z 01008KT 17/08 A2989 RMK A01 T01730078  RH  054%=      5-min Rain = 0
KDC1 251254Z 01007KT 17/08 A2989 RMK A01 T01730078  RH  054%=      5-min Rain = 0
KDC1 251255Z 01008KT 17/08 A2989 RMK A01 T01740078  RH  054%=      5-min Rain = 0
KDC1 251256Z 00009KT 17/08 A2989 RMK A01 T01740079  RH  053%=      5-min Rain = 0
KDC1 251257Z 01009KT 18/08 A2989 RMK A01 T01750079  RH  053%=      5-min Rain = 0
KDC1 251258Z 01008KT 18/08 A2989 RMK A01 T01750079  RH  053%=      5-min Rain = 0
KDC1 251259Z 00009KT 18/08 A2989 RMK A01 T01760079  RH  053%=      5-min Rain = 0
KDC1 251300Z 01010KT 18/08 A2989 RMK A01 T01770080  RH  053%=      5-min Rain = 0
KDC1 251301Z 01012KT 18/08 A2989 RMK A01 T01770079  RH  053%=      5-min Rain = 0
KDC1 251302Z 01009KT 18/08 A2989 RMK A01 T01780080  RH  053%=      5-min Rain = 0
KDC1 251303Z 01009G14KT 18/08 A2989 RMK A01 T01780081  RH  053%=      5-min Rain = 0
KDC1 251304Z 01011KT 18/08 A2989 RMK A01 T01790081  RH  053%=      5-min Rain = 0
KDC1 251305Z 01012KT 18/08 A2989 RMK A01 T01790081  RH  052%=      5-min Rain = 0
KDC1 251306Z 00013KT 18/08 A2989 RMK A01 T01790080  RH  052%=      5-min Rain = 0
KDC1 251307Z 00010KT 18/08 A2989 RMK A01 T01800080  RH  052%=      5-min Rain = 0
KDC1 251308Z 00009KT 18/08 A2989 RMK A01 T01810081  RH  052%=      5-min Rain = 0
KDC1 251309Z 00008KT 18/08 A2989 RMK A01 T01810082  RH  052%=      5-min Rain = 0
KDC1 251310Z 36011KT 18/08 A2989 RMK A01 T01810082  RH  052%=      5-min Rain = 0
KDC1 251311Z 00009G14KT 18/08 A2989 RMK A01 T01810081  RH  052%=      5-min Rain = 0
KDC1 251312Z 01009KT 18/08 A2989 RMK A01 T01820082  RH  052%=      5-min Rain = 0
KDC1 251313Z 01008KT 18/08 A2989 RMK A01 T01820082  RH  052%=      5-min Rain = 0
KDC1 251314Z 01009KT 18/08 A2989 RMK A01 T01820083  RH  052%=      5-min Rain = 0
KDC1 251315Z 01007KT 18/08 A2989 RMK A01 T01820083  RH  052%=      5-min Rain = 0
KDC1 251316Z 00009KT 18/08 A2989 RMK A01 T01820083  RH  052%=      5-min Rain = 0
KDC1 251317Z 00008KT 18/08 A299 RMK A01 T01830083  RH  052%=      5-min Rain = 0
KDC1 251318Z 01011KT 18/08 A2989 RMK A01 T01840082  RH  051%=      5-min Rain = 0
KDC1 251319Z 01010KT 18/08 A299 RMK A01 T01840081  RH  051%=      5-min Rain = 0
KDC1 251320Z 01011KT 19/08 A299 RMK A01 T01850082  RH  051%=      5-min Rain = 0
KDC1 251321Z 01012KT 19/08 A299 RMK A01 T01860082  RH  051%=      5-min Rain = 0
KDC1 251322Z 01011KT 19/08 A299 RMK A01 T01860081  RH  050%=      5-min Rain = 0
KDC1 251323Z 02010KT 19/08 A299 RMK A01 T01860081  RH  050%=      5-min Rain = 0
KDC1 251324Z 01009KT 19/08 A299 RMK A01 T01870081  RH  050%=      5-min Rain = 0
KDC1 251325Z 02011KT 19/08 A299 RMK A01 T01880081  RH  050%=      5-min Rain = 0
KDC1 251326Z 01012KT 19/08 A299 RMK A01 T01880080  RH  049%=      5-min Rain = 0
KDC1 251327Z 00010KT 19/08 A299 RMK A01 T01880080  RH  049%=      5-min Rain = 0
KDC1 251328Z 01008KT 19/08 A299 RMK A01 T01890081  RH  049%=      5-min Rain = 0
KDC1 251329Z 01009KT 19/08 A299 RMK A01 T01900082  RH  049%=      5-min Rain = 0
KDC1 251330Z 01010KT 19/08 A299 RMK A01 T01900082  RH  049%=      5-min Rain = 0
KDC1 251331Z 01011KT 19/08 A299 RMK A01 T01910080  RH  049%=      5-min Rain = 0
KDC1 251332Z 01009KT 19/08 A299 RMK A01 T01910081  RH  049%=      5-min Rain = 0
KDC1 251333Z 01010G15KT 19/08 A299 RMK A01 T01920082  RH  049%=      5-min Rain = 0
KDC1 251334Z 01011KT 19/08 A299 RMK A01 T01920082  RH  049%=      5-min Rain = 0
KDC1 251335Z 01011KT 19/08 A299 RMK A01 T01920081  RH  048%=      5-min Rain = 0
KDC1 251336Z 01011KT 19/08 A299 RMK A01 T01930082  RH  049%=      5-min Rain = 0
KDC1 251337Z 01011G16KT 19/08 A299 RMK A01 T01930082  RH  048%=      5-min Rain = 0
KDC1 251338Z 01014G19KT 19/08 A299 RMK A01 T01930082  RH  049%=      5-min Rain = 0
KDC1 251339Z 01017KT 19/08 A299 RMK A01 T01930080  RH  048%=      5-min Rain = 0
KDC1 251340Z 01017G22KT 19/08 A299 RMK A01 T01930080  RH  048%=      5-min Rain = 0
KDC1 251341Z 00016G23KT 19/08 A299 RMK A01 T01930080  RH  048%=      5-min Rain = 0
KDC1 251342Z 01017KT 19/08 A299 RMK A01 T01920081  RH  048%=      5-min Rain = 0
KDC1 251343Z 01014G19KT 19/08 A299 RMK A01 T01910079  RH  048%=      5-min Rain = 0
KDC1 251344Z 01015G20KT 19/08 A299 RMK A01 T01910080  RH  048%=      5-min Rain = 0
KDC1 251345Z 01014G21KT 19/08 A299 RMK A01 T01920080  RH  048%=      5-min Rain = 0
KDC1 251346Z 36022KT 19/08 A299 RMK A01 T01920079  RH  048%=      5-min Rain = 0
KDC1 251347Z 01018G23KT 19/08 A299 RMK A01 T01910078  RH  048%=      5-min Rain = 0
KDC1 251348Z 01020G26KT 19/08 A299 RMK A01 T01910078  RH  048%=      5-min Rain = 0
KDC1 251349Z 00019G24KT 19/08 A299 RMK A01 T01910078  RH  048%=      5-min Rain = 0
KDC1 251350Z 01018G23KT 19/08 A299 RMK A01 T01910078  RH  048%=      5-min Rain = 0
KDC1 251351Z 00014KT 19/08 A299 RMK A01 T01910079  RH  048%=      5-min Rain = 0
KDC1 251352Z 01015KT 19/08 A299 RMK A01 T01910080  RH  049%=      5-min Rain = 0
KDC1 251353Z 00017G22KT 19/08 A299 RMK A01 T01920080  RH  048%=      5-min Rain = 0
KDC1 251354Z 01017KT 19/08 A299 RMK A01 T01920079  RH  048%=      5-min Rain = 0
KDC1 251355Z 00015KT 19/08 A299 RMK A01 T01920079  RH  048%=      5-min Rain = 0
KDC1 251356Z 00016KT 19/08 A299 RMK A01 T01930080  RH  048%=      5-min Rain = 0
KDC1 251357Z 01016KT 19/08 A299 RMK A01 T01930079  RH  048%=      5-min Rain = 0
KDC1 251358Z 01017KT 19/08 A299 RMK A01 T01930079  RH  047%=      5-min Rain = 0
KDC1 251359Z 01018KT 19/08 A299 RMK A01 T01930079  RH  047%=      5-min Rain = 0
KDC1 251400Z 00014G19KT 19/08 A299 RMK A01 T01940080  RH  048%=      5-min Rain = 0
KDC1 251401Z 01015G20KT 19/08 A299 RMK A01 T01940080  RH  048%=      5-min Rain = 0
KDC1 251402Z 36013G21KT 19/08 A299 RMK A01 T01940080  RH  048%=      5-min Rain = 0
KDC1 251403Z 36018KT 20/08 A299 RMK A01 T01950081  RH  048%=      5-min Rain = 0
KDC1 251404Z 00019G24KT 20/08 A299 RMK A01 T01950079  RH  047%=      5-min Rain = 0
KDC1 251405Z 35017G24KT 20/08 A299 RMK A01 T01950079  RH  047%=      5-min Rain = 0
KDC1 251406Z 01018G23KT 20/08 A299 RMK A01 T01950079  RH  047%=      5-min Rain = 0
KDC1 251407Z 00018G23KT 20/08 A299 RMK A01 T01960079  RH  047%=      5-min Rain = 0
KDC1 251408Z 00019KT 20/08 A299 RMK A01 T01960079  RH  047%=      5-min Rain = 0
KDC1 251409Z 36019G24KT 20/08 A299 RMK A01 T01970078  RH  046%=      5-min Rain = 0
KDC1 251410Z 00019G24KT 20/08 A299 RMK A01 T01960078  RH  046%=      5-min Rain = 0
KDC1 251411Z 00017G23KT 20/08 A299 RMK A01 T01960079  RH  047%=      5-min Rain = 0
KDC1 251412Z 01019G25KT 20/08 A299 RMK A01 T01960079  RH  047%=      5-min Rain = 0
KDC1 251413Z 01018KT 20/08 A299 RMK A01 T01970079  RH  047%=      5-min Rain = 0
KDC1 251414Z 01015G21KT 20/08 A299 RMK A01 T01970080  RH  047%=      5-min Rain = 0
KDC1 251415Z 36019KT 20/08 A299 RMK A01 T01970080  RH  047%=      5-min Rain = 0
KDC1 251416Z 36017KT 20/08 A299 RMK A01 T01970078  RH  046%=      5-min Rain = 0
KDC1 251417Z 01020G25KT 20/08 A299 RMK A01 T01980080  RH  046%=      5-min Rain = 0
KDC1 251418Z 00017G23KT 20/08 A299 RMK A01 T01980081  RH  047%=      5-min Rain = 0
KDC1 251419Z 36016KT 20/08 A299 RMK A01 T01980081  RH  047%=      5-min Rain = 0
KDC1 251420Z 00013G18KT 20/08 A299 RMK A01 T01980082  RH  047%=      5-min Rain = 0
KDC1 251421Z 01015KT 20/08 A299 RMK A01 T01990083  RH  047%=      5-min Rain = 0
KDC1 251422Z 01017G25KT 20/08 A299 RMK A01 T02000083  RH  047%=      5-min Rain = 0
KDC1 251423Z 01019G25KT 20/08 A299 RMK A01 T02000081  RH  046%=      5-min Rain = 0
KDC1 251424Z 36014KT 20/08 A299 RMK A01 T01990081  RH  046%=      5-min Rain = 0
KDC1 251425Z 36013G20KT 20/08 A299 RMK A01 T02000083  RH  047%=      5-min Rain = 0
KDC1 251426Z 00017G22KT 20/08 A299 RMK A01 T02000082  RH  046%=      5-min Rain = 0
KDC1 251427Z 00020KT 20/08 A299 RMK A01 T02000081  RH  046%=      5-min Rain = 0
KDC1 251428Z 00018KT 20/08 A299 RMK A01 T01990080  RH  046%=      5-min Rain = 0
KDC1 251429Z 00014KT 20/08 A299 RMK A01 T01990081  RH  046%=      5-min Rain = 0
KDC1 251430Z 00014G20KT 20/08 A299 RMK A01 T01990082  RH  047%=      5-min Rain = 0
KDC1 251431Z 01013KT 20/08 A299 RMK A01 T02000082  RH  046%=      5-min Rain = 0
KDC1 251432Z 36012G19KT 20/08 A299 RMK A01 T02010084  RH  047%=      5-min Rain = 0
KDC1 251433Z 36018KT 20/08 A299 RMK A01 T02020083  RH  046%=      5-min Rain = 0
KDC1 251434Z 36017KT 20/08 A299 RMK A01 T02020082  RH  046%=      5-min Rain = 0
KDC1 251435Z 00015KT 20/08 A299 RMK A01 T02010082  RH  046%=      5-min Rain = 0
KDC1 251436Z 01013KT 20/09 A299 RMK A01 T02020085  RH  047%=      5-min Rain = 0
KDC1 251437Z 36014KT 20/08 A299 RMK A01 T02020084  RH  046%=      5-min Rain = 0
KDC1 251438Z 01011G18KT 20/08 A299 RMK A01 T02020084  RH  046%=      5-min Rain = 0
KDC1 251439Z 01015KT 20/08 A299 RMK A01 T02030084  RH  046%=      5-min Rain = 0
KDC1 251440Z 01015KT 20/08 A299 RMK A01 T02030081  RH  045%=      5-min Rain = 0
KDC1 251441Z 01015KT 20/08 A299 RMK A01 T02040081  RH  045%=      5-min Rain = 0
KDC1 251442Z 00012KT 20/08 A299 RMK A01 T02040082  RH  045%=      5-min Rain = 0
KDC1 251443Z 01016G22KT 21/08 A2991 RMK A01 T02060083  RH  045%=      5-min Rain = 0
KDC1 251444Z 02013G19KT 21/08 A2991 RMK A01 T02060081  RH  045%=      5-min Rain = 0
KDC1 251445Z 03013KT 21/08 A2991 RMK A01 T02060080  RH  044%=      5-min Rain = 0
KDC1 251446Z 02010KT 21/08 A2991 RMK A01 T02060080  RH  044%=      5-min Rain = 0
KDC1 251447Z 36011G16KT 21/08 A2991 RMK A01 T02070083  RH  045%=      5-min Rain = 0
KDC1 251448Z 35011KT 21/09 A2991 RMK A01 T02080085  RH  045%=      5-min Rain = 0
KDC1 251449Z 36013KT 21/09 A2991 RMK A01 T02080086  RH  045%=      5-min Rain = 0
KDC1 251450Z 00013KT 21/08 A2991 RMK A01 T02080083  RH  044%=      5-min Rain = 0
KDC1 251451Z 01011KT 21/08 A2991 RMK A01 T02090084  RH  045%=      5-min Rain = 0
KDC1 251452Z 00012KT 21/09 A2991 RMK A01 T02100086  RH  045%=      5-min Rain = 0
KDC1 251453Z 36012G19KT 21/09 A2991 RMK A01 T02100088  RH  046%=      5-min Rain = 0
KDC1 251454Z 01013KT 21/09 A2991 RMK A01 T02100085  RH  044%=      5-min Rain = 0
KDC1 251455Z 01010KT 21/09 A2991 RMK A01 T02100088  RH  045%=      5-min Rain = 0
KDC1 251456Z 02012KT 21/09 A2991 RMK A01 T02110088  RH  045%=      5-min Rain = 0
KDC1 251457Z 03010KT 21/09 A2991 RMK A01 T02120087  RH  045%=      5-min Rain = 0
KDC1 251458Z 03009G15KT 21/08 A2991 RMK A01 T02130083  RH  043%=      5-min Rain = 0
KDC1 251459Z 03012KT 21/08 A2991 RMK A01 T02130080  RH  042%=      5-min Rain = 0
KDC1 251500Z 03013KT 22/08 A2991 RMK A01 T02150078  RH  041%=      5-min Rain = 0
KDC1 251501Z 04011KT 22/08 A2991 RMK A01 T02150076  RH  041%=      5-min Rain = 0
KDC1 251502Z 04009KT 21/08 A2991 RMK A01 T02140075  RH  041%=      5-min Rain = 0
KDC1 251503Z 04010KT 21/08 A2991 RMK A01 T02130075  RH  041%=      5-min Rain = 0
KDC1 251504Z 03011KT 21/08 A2991 RMK A01 T02140078  RH  041%=      5-min Rain = 0
KDC1 251505Z 04011KT 22/08 A2991 RMK A01 T02150078  RH  041%=      5-min Rain = 0
KDC1 251506Z 04010KT 22/08 A2991 RMK A01 T02150078  RH  041%=      5-min Rain = 0
KDC1 251507Z 02013G19KT 22/08 A2991 RMK A01 T02150079  RH  041%=      5-min Rain = 0
KDC1 251508Z 02011KT 22/08 A2991 RMK A01 T02160080  RH  042%=      5-min Rain = 0
KDC1 251509Z 02013G19KT 22/08 A2992 RMK A01 T02170081  RH  042%=      5-min Rain = 0
KDC1 251510Z 03015KT 22/08 A2992 RMK A01 T02180079  RH  041%=      5-min Rain = 0
KDC1 251511Z 03014KT 22/08 A2992 RMK A01 T02170079  RH  041%=      5-min Rain = 0
KDC1 251512Z 03013G18KT 22/08 A2992 RMK A01 T02160079  RH  041%=      5-min Rain = 0
KDC1 251513Z 02015KT 22/08 A2992 RMK A01 T02170079  RH  041%=      5-min Rain = 0
KDC1 251514Z 01014KT 22/08 A2992 RMK A01 T02160082  RH  042%=      5-min Rain = 0
KDC1 251515Z 01012KT 22/08 A2992 RMK A01 T02160080  RH  041%=      5-min Rain = 0
KDC1 251516Z 01013KT 22/08 A2992 RMK A01 T02160080  RH  042%=      5-min Rain = 0
KDC1 251517Z 03011KT 22/08 A2992 RMK A01 T02160081  RH  042%=      5-min Rain = 0
KDC1 251518Z 04014KT 22/08 A2992 RMK A01 T02170082  RH  042%=      5-min Rain = 0
KDC1 251519Z 03016G21KT 22/08 A2992 RMK A01 T02190081  RH  041%=      5-min Rain = 0
KDC1 251520Z 02018KT 22/08 A2992 RMK A01 T02190081  RH  041%=      5-min Rain = 0
KDC1 251521Z 03017G23KT 22/08 A2992 RMK A01 T02170080  RH  041%=      5-min Rain = 0
KDC1 251522Z 02015KT 22/08 A2992 RMK A01 T02160080  RH  042%=      5-min Rain = 0
KDC1 251523Z 02017KT 22/08 A2992 RMK A01 T02160083  RH  042%=      5-min Rain = 0
KDC1 251524Z 02017KT 22/08 A2992 RMK A01 T02160080  RH  042%=      5-min Rain = 0
KDC1 251525Z 03016KT 22/08 A2992 RMK A01 T02160080  RH  041%=      5-min Rain = 0
KDC1 251526Z 04018G24KT 22/08 A2992 RMK A01 T02160079  RH  041%=      5-min Rain = 0
KDC1 251527Z 03016G21KT 22/08 A2992 RMK A01 T02160079  RH  041%=      5-min Rain = 0
KDC1 251528Z 03019KT 22/08 A2992 RMK A01 T02170080  RH  041%=      5-min Rain = 0
KDC1 251529Z 03016G21KT 22/08 A2992 RMK A01 T02170081  RH  042%=      5-min Rain = 0
KDC1 251530Z 03018G23KT 22/08 A2992 RMK A01 T02180080  RH  041%=      5-min Rain = 0
KDC1 251531Z 04016KT 22/08 A2993 RMK A01 T02170081  RH  041%=      5-min Rain = 0
KDC1 251532Z 04016KT 22/08 A2992 RMK A01 T02180079  RH  041%=      5-min Rain = 0
KDC1 251533Z 04015KT 22/08 A2992 RMK A01 T02180079  RH  041%=      5-min Rain = 0
KDC1 251534Z 04015KT 22/08 A2992 RMK A01 T02190079  RH  041%=      5-min Rain = 0
KDC1 251535Z 03019KT 22/08 A2993 RMK A01 T02200078  RH  040%=      5-min Rain = 0
KDC1 251536Z 03019KT 22/08 A2993 RMK A01 T02180077  RH  040%=      5-min Rain = 0
KDC1 251537Z 02013KT 22/08 A2993 RMK A01 T02170080  RH  041%=      5-min Rain = 0
KDC1 251538Z 00013G22KT 22/08 A2992 RMK A01 T02170079  RH  041%=      5-min Rain = 0
KDC1 251539Z 01014G21KT 22/08 A2993 RMK A01 T02180083  RH  042%=      5-min Rain = 0
KDC1 251540Z 02014G19KT 22/08 A2993 RMK A01 T02210083  RH  041%=      5-min Rain = 0
KDC1 251541Z 03016KT 22/08 A2993 RMK A01 T02200078  RH  040%=      5-min Rain = 0
KDC1 251542Z 02016G21KT 22/08 A2993 RMK A01 T02180079  RH  041%=      5-min Rain = 0
KDC1 251543Z 02015G20KT 22/08 A2993 RMK A01 T02180080  RH  041%=      5-min Rain = 0
KDC1 251544Z 01017G22KT 22/08 A2993 RMK A01 T02180081  RH  041%=      5-min Rain = 0
KDC1 251545Z 01015G22KT 22/08 A2993 RMK A01 T02180082  RH  042%=      5-min Rain = 0
KDC1 251546Z 03014G20KT 22/08 A2993 RMK A01 T02180083  RH  042%=      5-min Rain = 0
KDC1 251547Z 02015KT 22/08 A2993 RMK A01 T02190084  RH  042%=      5-min Rain = 0
KDC1 251548Z 02017G22KT 22/08 A2993 RMK A01 T02190084  RH  042%=      5-min Rain = 0
KDC1 251549Z 02016G21KT 22/08 A2993 RMK A01 T02170083  RH  042%=      5-min Rain = 0
KDC1 251550Z 01014G19KT 22/09 A2993 RMK A01 T02160085  RH  043%=      5-min Rain = 0
KDC1 251551Z 01016KT 22/09 A2993 RMK A01 T02170085  RH  043%=      5-min Rain = 0
KDC1 251552Z 02016KT 22/08 A2993 RMK A01 T02180083  RH  042%=      5-min Rain = 0
KDC1 251553Z 01019KT 22/09 A2993 RMK A01 T02160085  RH  043%=      5-min Rain = 0
KDC1 251554Z 01015KT 22/09 A2993 RMK A01 T02160085  RH  043%=      5-min Rain = 0
KDC1 251555Z 03015G23KT 22/09 A2993 RMK A01 T02160086  RH  043%=      5-min Rain = 0
KDC1 251556Z 03015KT 22/09 A2993 RMK A01 T02170085  RH  043%=      5-min Rain = 0
KDC1 251557Z 01014KT 22/09 A2993 RMK A01 T02170087  RH  043%=      5-min Rain = 0
KDC1 251558Z 01015G20KT 22/09 A2993 RMK A01 T02190090  RH  044%=      5-min Rain = 0
KDC1 251559Z 01015KT 22/09 A2993 RMK A01 T02200089  RH  043%=      5-min Rain = 0
KDC1 251600Z 01016KT 22/09 A2994 RMK A01 T02190090  RH  043%=      5-min Rain = 0
KDC1 251601Z 02016KT 22/09 A2994 RMK A01 T02180089  RH  044%=      5-min Rain = 0
KDC1 251602Z 02015G20KT 22/09 A2994 RMK A01 T02170087  RH  043%=      5-min Rain = 0
KDC1 251603Z 03016KT 22/09 A2994 RMK A01 T02170088  RH  044%=      5-min Rain = 0
KDC1 251604Z 02016KT 22/09 A2994 RMK A01 T02180088  RH  043%=      5-min Rain = 0
KDC1 251605Z 02015G21KT 22/09 A2994 RMK A01 T02180090  RH  044%=      5-min Rain = 0
KDC1 251606Z 02016KT 22/09 A2994 RMK A01 T02170088  RH  044%=      5-min Rain = 0
KDC1 251607Z 01012G17KT 22/09 A2994 RMK A01 T02160088  RH  044%=      5-min Rain = 0
KDC1 251608Z 01014KT 22/09 A2994 RMK A01 T02180088  RH  043%=      5-min Rain = 0
KDC1 251609Z 02011KT 22/09 A2994 RMK A01 T02180088  RH  043%=      5-min Rain = 0
KDC1 251610Z 00015G20KT 22/09 A2994 RMK A01 T02180088  RH  043%=      5-min Rain = 0
KDC1 251611Z 01017KT 22/09 A2994 RMK A01 T02190089  RH  043%=      5-min Rain = 0
KDC1 251612Z 01015KT 22/09 A2994 RMK A01 T02190086  RH  042%=      5-min Rain = 0
KDC1 251613Z 03015KT 22/08 A2994 RMK A01 T02170084  RH  042%=      5-min Rain = 0
KDC1 251614Z 02017KT 22/08 A2994 RMK A01 T02160083  RH  043%=      5-min Rain = 0
KDC1 251615Z 02012G19KT 22/09 A2994 RMK A01 T02150086  RH  043%=      5-min Rain = 0
KDC1 251616Z 02016KT 22/09 A2994 RMK A01 T02180087  RH  043%=      5-min Rain = 0
KDC1 251617Z 01017KT 22/09 A2994 RMK A01 T02180085  RH  043%=      5-min Rain = 0
KDC1 251618Z 03019KT 22/08 A2994 RMK A01 T02160083  RH  042%=      5-min Rain = 0
KDC1 251619Z 02019G24KT 21/08 A2994 RMK A01 T02140080  RH  042%=      5-min Rain = 0
KDC1 251620Z 02014KT 21/08 A2994 RMK A01 T02120079  RH  042%=      5-min Rain = 0
KDC1 251621Z 02017G23KT 21/08 A2994 RMK A01 T02110082  RH  043%=      5-min Rain = 0
KDC1 251622Z 02014G19KT 21/08 A2994 RMK A01 T02120083  RH  043%=      5-min Rain = 0
KDC1 251623Z 03013KT 21/08 A2994 RMK A01 T02140081  RH  042%=      5-min Rain = 0
KDC1 251624Z 04012KT 22/08 A2994 RMK A01 T02160083  RH  042%=      5-min Rain = 0
KDC1 251625Z 04016G21KT 22/08 A2995 RMK A01 T02180084  RH  042%=      5-min Rain = 0
KDC1 251626Z 03016KT 22/08 A2994 RMK A01 T02190084  RH  042%=      5-min Rain = 0
KDC1 251627Z 03016G22KT 22/09 A2995 RMK A01 T02200085  RH  042%=      5-min Rain = 0
KDC1 251628Z 03015G21KT 22/08 A2995 RMK A01 T02200083  RH  041%=      5-min Rain = 0
KDC1 251629Z 03015G20KT 22/08 A2995 RMK A01 T02190084  RH  042%=      5-min Rain = 0
KDC1 251630Z 02012G17KT 22/09 A2994 RMK A01 T02190085  RH  042%=      5-min Rain = 0
KDC1 251631Z 02011G17KT 22/09 A2995 RMK A01 T02190087  RH  043%=      5-min Rain = 0
KDC1 251632Z 02012KT 22/09 A2994 RMK A01 T02210087  RH  042%=      5-min Rain = 0
KDC1 251633Z 03011KT 22/09 A2994 RMK A01 T02220087  RH  042%=      5-min Rain = 0
KDC1 251634Z 03016KT 22/09 A2994 RMK A01 T02230088  RH  042%=      5-min Rain = 0
KDC1 251635Z 04013G19KT 22/09 A2994 RMK A01 T02230085  RH  041%=      5-min Rain = 0
KDC1 251636Z 05015G20KT 22/09 A2994 RMK A01 T02220086  RH  042%=      5-min Rain = 0
KDC1 251637Z 05019G26KT 22/08 A2994 RMK A01 T02210084  RH  042%=      5-min Rain = 0
KDC1 251638Z 04016KT 22/09 A2995 RMK A01 T02200086  RH  042%=      5-min Rain = 0
KDC1 251639Z 03016KT 22/08 A2995 RMK A01 T02200083  RH  041%=      5-min Rain = 0
KDC1 251640Z 04015KT 22/08 A2995 RMK A01 T02160084  RH  043%=      5-min Rain = 0
KDC1 251641Z 05012G18KT 22/08 A2995 RMK A01 T02160084  RH  043%=      5-min Rain = 0
KDC1 251642Z 04014G20KT 22/09 A2995 RMK A01 T02180086  RH  043%=      5-min Rain = 0
KDC1 251643Z 04013KT 22/09 A2995 RMK A01 T02220086  RH  042%=      5-min Rain = 0
KDC1 251644Z 04015G22KT 22/09 A2994 RMK A01 T02220087  RH  042%=      5-min Rain = 0
KDC1 251645Z 04016KT 22/09 A2995 RMK A01 T02220086  RH  042%=      5-min Rain = 0
KDC1 251646Z 04016KT 22/09 A2995 RMK A01 T02220087  RH  042%=      5-min Rain = 0
KDC1 251647Z 03015KT 22/09 A2995 RMK A01 T02230086  RH  041%=      5-min Rain = 0
KDC1 251648Z 02015KT 22/09 A2995 RMK A01 T02220087  RH  042%=      5-min Rain = 0
KDC1 251649Z 04015KT 22/09 A2995 RMK A01 T02210087  RH  042%=      5-min Rain = 0
KDC1 251650Z 05015KT 22/08 A2995 RMK A01 T02210084  RH  041%=      5-min Rain = 0
KDC1 251651Z 05017KT 22/08 A2995 RMK A01 T02210084  RH  041%=      5-min Rain = 0
KDC1 251652Z 04017KT 22/08 A2995 RMK A01 T02200084  RH  041%=      5-min Rain = 0
KDC1 251653Z 04016G21KT 22/08 A2995 RMK A01 T02210084  RH  042%=      5-min Rain = 0
KDC1 251654Z 03018G23KT 22/09 A2995 RMK A01 T02210085  RH  042%=      5-min Rain = 0
KDC1 251655Z 04012KT 22/09 A2995 RMK A01 T02230088  RH  042%=      5-min Rain = 0
KDC1 251656Z 05018G25KT 23/09 A2995 RMK A01 T02250086  RH  041%=      5-min Rain = 0
KDC1 251657Z 01015KT 23/09 A2995 RMK A01 T02250087  RH  041%=      5-min Rain = 0
KDC1 251658Z 02012KT 22/09 A2995 RMK A01 T02230087  RH  042%=      5-min Rain = 0
KDC1 251659Z 04012KT 22/09 A2995 RMK A01 T02230087  RH  042%=      5-min Rain = 0
KDC1 251700Z 05015KT 23/08 A2995 RMK A01 T02250083  RH  040%=      5-min Rain = 0
KDC1 251701Z 04015G20KT 23/08 A2995 RMK A01 T02260082  RH  040%=      5-min Rain = 0
KDC1 251702Z 03017KT 23/08 A2995 RMK A01 T02260084  RH  040%=      5-min Rain = 0
KDC1 251703Z 03015KT 22/09 A2995 RMK A01 T02240085  RH  041%=      5-min Rain = 0
KDC1 251704Z 05015KT 22/09 A2995 RMK A01 T02240086  RH  041%=      5-min Rain = 0
KDC1 251705Z 03012G17KT 23/09 A2995 RMK A01 T02250086  RH  041%=      5-min Rain = 0
KDC1 251706Z 04012KT 23/09 A2995 RMK A01 T02290089  RH  041%=      5-min Rain = 0
KDC1 251707Z 05013KT 23/09 A2995 RMK A01 T02310087  RH  040%=      5-min Rain = 0
KDC1 251708Z 04014KT 23/09 A2995 RMK A01 T02320085  RH  039%=      5-min Rain = 0
KDC1 251709Z 06013KT 23/09 A2995 RMK A01 T02290085  RH  040%=      5-min Rain = 0
KDC1 251710Z 05013KT 23/09 A2995 RMK A01 T02280085  RH  040%=      5-min Rain = 0
KDC1 251711Z 04015KT 23/09 A2995 RMK A01 T02290086  RH  040%=      5-min Rain = 0
KDC1 251712Z 04011KT 23/09 A2995 RMK A01 T02300086  RH  040%=      5-min Rain = 0
KDC1 251713Z 05013KT 23/09 A2995 RMK A01 T02320086  RH  039%=      5-min Rain = 0
KDC1 251714Z 04013KT 23/09 A2995 RMK A01 T02330087  RH  039%=      5-min Rain = 0
KDC1 251715Z 03012G17KT 23/09 A2995 RMK A01 T02330087  RH  039%=      5-min Rain = 0
KDC1 251716Z 02011KT 23/09 A2995 RMK A01 T02320086  RH  039%=      5-min Rain = 0
KDC1 251717Z 03010G15KT 23/09 A2995 RMK A01 T02320087  RH  039%=      5-min Rain = 0
KDC1 251718Z 04013G18KT 23/08 A2995 RMK A01 T02330082  RH  038%=      5-min Rain = 0
KDC1 251719Z 02013KT 23/08 A2995 RMK A01 T02290082  RH  039%=      5-min Rain = 0
KDC1 251720Z 04014G19KT 23/09 A2995 RMK A01 T02290085  RH  040%=      5-min Rain = 0
KDC1 251721Z 04015KT 23/08 A2995 RMK A01 T02290084  RH  039%=      5-min Rain = 0
KDC1 251722Z 05013G20KT 23/09 A2995 RMK A01 T02280086  RH  040%=      5-min Rain = 0
KDC1 251723Z 04017KT 23/09 A2995 RMK A01 T02300085  RH  039%=      5-min Rain = 0
KDC1 251724Z 05016KT 23/09 A2995 RMK A01 T02280085  RH  040%=      5-min Rain = 0
KDC1 251725Z 06015KT 23/08 A2995 RMK A01 T02280084  RH  040%=      5-min Rain = 0
KDC1 251726Z 05016KT 23/08 A2995 RMK A01 T02300082  RH  039%=      5-min Rain = 0
KDC1 251727Z 04016KT 23/08 A2995 RMK A01 T02290084  RH  039%=      5-min Rain = 0
KDC1 251728Z 03016KT 23/08 A2995 RMK A01 T02300083  RH  039%=      5-min Rain = 0
KDC1 251729Z 04013G18KT 23/08 A2995 RMK A01 T02290082  RH  039%=      5-min Rain = 0
KDC1 251730Z 04012G18KT 23/08 A2995 RMK A01 T02270084  RH  040%=      5-min Rain = 0
KDC1 251731Z 06015G21KT 23/08 A2995 RMK A01 T02320084  RH  039%=      5-min Rain = 0
KDC1 251732Z 05013KT 23/08 A2995 RMK A01 T02340083  RH  038%=      5-min Rain = 0
KDC1 251733Z 05015G21KT 23/08 A2995 RMK A01 T02340083  RH  038%=      5-min Rain = 0
KDC1 251734Z 05013KT 23/08 A2995 RMK A01 T02330084  RH  039%=      5-min Rain = 0
KDC1 251735Z 05015KT 23/08 A2995 RMK A01 T02340083  RH  038%=      5-min Rain = 0
KDC1 251736Z 04011G16KT 23/09 A2995 RMK A01 T02320085  RH  039%=      5-min Rain = 0
KDC1 251737Z 03013KT 23/08 A2995 RMK A01 T02340084  RH  038%=      5-min Rain = 0
KDC1 251738Z 02013G19KT 23/08 A2995 RMK A01 T02330083  RH  038%=      5-min Rain = 0
KDC1 251739Z 02015KT 23/09 A2995 RMK A01 T02330085  RH  039%=      5-min Rain = 0
KDC1 251740Z 03013KT 23/09 A2995 RMK A01 T02310085  RH  039%=      5-min Rain = 0
KDC1 251741Z 03011KT 23/08 A2995 RMK A01 T02310082  RH  038%=      5-min Rain = 0
KDC1 251742Z 03011KT 23/08 A2995 RMK A01 T02310080  RH  038%=      5-min Rain = 0
KDC1 251743Z 02012G17KT 23/09 A2995 RMK A01 T02310085  RH  039%=      5-min Rain = 0
KDC1 251744Z 01011KT 23/09 A2995 RMK A01 T02340086  RH  039%=      5-min Rain = 0
KDC1 251745Z 02015KT 23/08 A2995 RMK A01 T02340084  RH  038%=      5-min Rain = 0
KDC1 251746Z 01015KT 23/09 A2995 RMK A01 T02340087  RH  039%=      5-min Rain = 0
KDC1 251747Z 02011G16KT 23/09 A2995 RMK A01 T02330086  RH  039%=      5-min Rain = 0
KDC1 251748Z 03015KT 23/09 A2995 RMK A01 T02330087  RH  039%=      5-min Rain = 0
KDC1 251749Z 03012KT 23/08 A2995 RMK A01 T02310083  RH  039%=      5-min Rain = 0
KDC1 251750Z 02013G18KT 23/09 A2995 RMK A01 T02310086  RH  040%=      5-min Rain = 0
KDC1 251751Z 03017KT 23/09 A2995 RMK A01 T02330085  RH  039%=      5-min Rain = 0
KDC1 251752Z 02013G18KT 23/08 A2995 RMK A01 T02310082  RH  038%=      5-min Rain = 0
KDC1 251753Z 04012KT 23/08 A2995 RMK A01 T02310083  RH  039%=      5-min Rain = 0
KDC1 251754Z 03012KT 23/08 A2995 RMK A01 T02310082  RH  039%=      5-min Rain = 0
KDC1 251755Z 02017KT 23/09 A2996 RMK A01 T02300085  RH  039%=      5-min Rain = 0
KDC1 251756Z 03016KT 23/08 A2996 RMK A01 T02270083  RH  040%=      5-min Rain = 0
KDC1 251757Z 03013KT 23/08 A2996 RMK A01 T02280082  RH  039%=      5-min Rain = 0
KDC1 251758Z 02011KT 23/08 A2996 RMK A01 T02280082  RH  039%=      5-min Rain = 0
KDC1 251759Z 03014KT 23/08 A2996 RMK A01 T02280082  RH  039%=      5-min Rain = 0
KDC1 251800Z 03013G18KT 23/08 A2996 RMK A01 T02290080  RH  039%=      5-min Rain = 0
KDC1 251801Z 02012G17KT 23/08 A2996 RMK A01 T02300082  RH  039%=      5-min Rain = 0
KDC1 251802Z 03013KT 23/08 A2996 RMK A01 T02320081  RH  038%=      5-min Rain = 0
KDC1 251803Z 03012KT 23/08 A2996 RMK A01 T02300081  RH  038%=      5-min Rain = 0
KDC1 251804Z 03014KT 23/08 A2996 RMK A01 T02270079  RH  039%=      5-min Rain = 0
KDC1 251805Z 04014KT 23/08 A2996 RMK A01 T02250079  RH  039%=      5-min Rain = 0
KDC1 251806Z 04010KT 22/08 A2996 RMK A01 T02230079  RH  039%=      5-min Rain = 0
KDC1 251807Z 05014KT 22/08 A2995 RMK A01 T02230080  RH  040%=      5-min Rain = 0
KDC1 251808Z 03012KT 22/08 A2996 RMK A01 T02240080  RH  040%=      5-min Rain = 0
KDC1 251809Z 02011G16KT 22/08 A2995 RMK A01 T02230080  RH  040%=      5-min Rain = 0
KDC1 251810Z 00010KT 22/08 A2995 RMK A01 T02240081  RH  040%=      5-min Rain = 0
KDC1 251811Z 01011KT 23/08 A2995 RMK A01 T02250082  RH  040%=      5-min Rain = 0
KDC1 251812Z 02012G18KT 22/08 A2995 RMK A01 T02230081  RH  040%=      5-min Rain = 0
KDC1 251813Z 02012KT 22/08 A2996 RMK A01 T02210082  RH  041%=      5-min Rain = 0
KDC1 251814Z 02015KT 22/08 A2996 RMK A01 T02210081  RH  041%=      5-min Rain = 0
KDC1 251815Z 04014KT 22/08 A2996 RMK A01 T02210082  RH  041%=      5-min Rain = 0
KDC1 251816Z 04012KT 22/08 A2995 RMK A01 T02210080  RH  040%=      5-min Rain = 0
KDC1 251817Z 05011KT 22/08 A2995 RMK A01 T02210081  RH  040%=      5-min Rain = 0
KDC1 251818Z 04016G21KT 22/08 A2996 RMK A01 T02220080  RH  040%=      5-min Rain = 0
KDC1 251819Z 03011KT 22/08 A2995 RMK A01 T02230080  RH  040%=      5-min Rain = 0
KDC1 251820Z 03009KT 22/08 A2995 RMK A01 T02220080  RH  040%=      5-min Rain = 0
KDC1 251821Z 01008G13KT 22/08 A2995 RMK A01 T02230082  RH  040%=      5-min Rain = 0
KDC1 251822Z 01010KT 23/09 A2995 RMK A01 T02250085  RH  041%=      5-min Rain = 0
KDC1 251823Z 01010G15KT 23/09 A2995 RMK A01 T02280085  RH  040%=      5-min Rain = 0
KDC1 251824Z 02011KT 23/09 A2996 RMK A01 T02310087  RH  040%=      5-min Rain = 0
KDC1 251825Z 01013KT 23/09 A2996 RMK A01 T02320087  RH  039%=      5-min Rain = 0
KDC1 251826Z 02016KT 23/09 A2996 RMK A01 T02330088  RH  040%=      5-min Rain = 0
KDC1 251827Z 02017KT 24/08 A2996 RMK A01 T02370084  RH  038%=      5-min Rain = 0
KDC1 251828Z 02014G19KT 24/08 A2996 RMK A01 T02370081  RH  037%=      5-min Rain = 0
KDC1 251829Z 03010KT 24/08 A2996 RMK A01 T02360079  RH  036%=      5-min Rain = 0
KDC1 251830Z 03008KT 24/08 A2995 RMK A01 T02350078  RH  036%=      5-min Rain = 0
KDC1 251831Z 03008G13KT 24/08 A2995 RMK A01 T02350083  RH  038%=      5-min Rain = 0
KDC1 251832Z 01012G19KT 24/09 A2996 RMK A01 T02390086  RH  038%=      5-min Rain = 0
KDC1 251833Z 01017KT 24/08 A2996 RMK A01 T02400084  RH  037%=      5-min Rain = 0
KDC1 251834Z 02014KT 24/08 A2996 RMK A01 T02390082  RH  037%=      5-min Rain = 0
KDC1 251835Z 03013KT 24/08 A2996 RMK A01 T02380084  RH  037%=      5-min Rain = 0
KDC1 251836Z 03009KT 24/08 A2996 RMK A01 T02370080  RH  037%=      5-min Rain = 0
KDC1 251837Z 01012KT 24/08 A2995 RMK A01 T02380082  RH  037%=      5-min Rain = 0
KDC1 251838Z 01009KT 24/09 A2995 RMK A01 T02390085  RH  037%=      5-min Rain = 0
KDC1 251839Z 01012KT 24/08 A2995 RMK A01 T02390084  RH  037%=      5-min Rain = 0
KDC1 251840Z 02014KT 24/08 A2996 RMK A01 T02400084  RH  037%=      5-min Rain = 0
KDC1 251841Z 01011KT 24/08 A2995 RMK A01 T02400083  RH  037%=      5-min Rain = 0
KDC1 251842Z 00011KT 24/08 A2995 RMK A01 T02400083  RH  037%=      5-min Rain = 0
KDC1 251843Z 01013KT 24/08 A2995 RMK A01 T02400083  RH  037%=      5-min Rain = 0
KDC1 251844Z 03011KT 24/08 A2995 RMK A01 T02390081  RH  036%=      5-min Rain = 0
KDC1 251845Z 02012G18KT 24/08 A2995 RMK A01 T02390079  RH  036%=      5-min Rain = 0
KDC1 251846Z 01015KT 24/09 A2996 RMK A01 T02420089  RH  038%=      5-min Rain = 0
KDC1 251847Z 00016KT 24/09 A2995 RMK A01 T02420087  RH  037%=      5-min Rain = 0
KDC1 251848Z 01017KT 24/09 A2996 RMK A01 T02400085  RH  037%=      5-min Rain = 0
KDC1 251849Z 01015KT 24/08 A2996 RMK A01 T02380083  RH  037%=      5-min Rain = 0
KDC1 251850Z 00014KT 24/09 A2996 RMK A01 T02370086  RH  038%=      5-min Rain = 0
KDC1 251851Z 01011KT 24/09 A2996 RMK A01 T02380087  RH  038%=      5-min Rain = 0
KDC1 251852Z 01016G22KT 24/09 A2996 RMK A01 T02390088  RH  038%=      5-min Rain = 0
KDC1 251853Z 00014G19KT 24/09 A2996 RMK A01 T02400086  RH  037%=      5-min Rain = 0
KDC1 251854Z 02014KT 24/08 A2996 RMK A01 T02400084  RH  037%=      5-min Rain = 0
KDC1 251855Z 02014KT 24/08 A2996 RMK A01 T02410083  RH  036%=      5-min Rain = 0
KDC1 251856Z 02009KT 24/08 A2996 RMK A01 T02370080  RH  036%=      5-min Rain = 0
KDC1 251857Z 03009KT 23/08 A2996 RMK A01 T02330078  RH  037%=      5-min Rain = 0
KDC1 251858Z 03009G14KT 23/08 A2996 RMK A01 T02320081  RH  038%=      5-min Rain = 0
KDC1 251859Z 02013KT 23/09 A2996 RMK A01 T02340086  RH  039%=      5-min Rain = 0
KDC1 251900Z 02012KT 24/09 A2996 RMK A01 T02350085  RH  038%=      5-min Rain = 0
KDC1 251901Z 03009KT 23/08 A2996 RMK A01 T02340083  RH  038%=      5-min Rain = 0
KDC1 251902Z 02009KT 23/08 A2996 RMK A01 T02340083  RH  038%=      5-min Rain = 0
KDC1 251903Z 01013KT 23/08 A2996 RMK A01 T02330084  RH  038%=      5-min Rain = 0
KDC1 251904Z 01013KT 23/09 A2996 RMK A01 T02340085  RH  038%=      5-min Rain = 0
KDC1 251905Z 00008KT 23/09 A2996 RMK A01 T02340087  RH  039%=      5-min Rain = 0
KDC1 251906Z 00012G17KT 24/09 A2996 RMK A01 T02350087  RH  039%=      5-min Rain = 0
KDC1 251907Z 02014G19KT 24/09 A2996 RMK A01 T02360089  RH  039%=      5-min Rain = 0
KDC1 251908Z 02013KT 24/09 A2996 RMK A01 T02360086  RH  038%=      5-min Rain = 0
KDC1 251909Z 00012KT 24/09 A2996 RMK A01 T02360085  RH  038%=      5-min Rain = 0
KDC1 251910Z 01009KT 24/09 A2996 RMK A01 T02360087  RH  038%=      5-min Rain = 0
KDC1 251911Z 02015KT 24/09 A2996 RMK A01 T02390090  RH  039%=      5-min Rain = 0
KDC1 251912Z 02015KT 24/09 A2996 RMK A01 T02400087  RH  038%=      5-min Rain = 0
KDC1 251913Z 02011KT 24/09 A2996 RMK A01 T02400085  RH  037%=      5-min Rain = 0
KDC1 251914Z 02012KT 24/08 A2996 RMK A01 T02400083  RH  037%=      5-min Rain = 0
KDC1 251915Z 02009G14KT 24/08 A2996 RMK A01 T02400082  RH  036%=      5-min Rain = 0
KDC1 251916Z 01015KT 24/09 A2996 RMK A01 T02410086  RH  037%=      5-min Rain = 0
KDC1 251917Z 01014KT 24/08 A2996 RMK A01 T02410084  RH  037%=      5-min Rain = 0
KDC1 251918Z 02013KT 24/08 A2996 RMK A01 T02400081  RH  036%=      5-min Rain = 0
KDC1 251919Z 01010KT 24/08 A2996 RMK A01 T02400082  RH  036%=      5-min Rain = 0
KDC1 251920Z 03010KT 24/08 A2996 RMK A01 T02400082  RH  037%=      5-min Rain = 0
KDC1 251921Z 04010KT 24/08 A2996 RMK A01 T02420084  RH  036%=      5-min Rain = 0
KDC1 251922Z 03012KT 25/08 A2996 RMK A01 T02450082  RH  035%=      5-min Rain = 0
KDC1 251923Z 04009KT 24/08 A2996 RMK A01 T02440081  RH  035%=      5-min Rain = 0
KDC1 251924Z 04009KT 24/08 A2996 RMK A01 T02430080  RH  035%=      5-min Rain = 0
KDC1 251925Z 06008KT 24/08 A2996 RMK A01 T02430079  RH  035%=      5-min Rain = 0
KDC1 251926Z 03007KT 24/08 A2996 RMK A01 T02420079  RH  035%=      5-min Rain = 0
KDC1 251927Z 03010KT 24/08 A2996 RMK A01 T02430080  RH  035%=      5-min Rain = 0
KDC1 251928Z 04010KT 24/09 A2996 RMK A01 T02430085  RH  037%=      5-min Rain = 0
KDC1 251929Z 05012KT 25/08 A2996 RMK A01 T02460082  RH  035%=      5-min Rain = 0
KDC1 251930Z 04011G17KT 25/08 A2996 RMK A01 T02450083  RH  036%=      5-min Rain = 0
KDC1 251931Z 03012G18KT 25/08 A2996 RMK A01 T02480082  RH  035%=      5-min Rain = 0
KDC1 251932Z 05013KT 25/08 A2996 RMK A01 T02450080  RH  035%=      5-min Rain = 0
KDC1 251933Z 03012KT 24/08 A2996 RMK A01 T02430082  RH  036%=      5-min Rain = 0
KDC1 251934Z 02013KT 25/08 A2996 RMK A01 T02460081  RH  035%=      5-min Rain = 0
KDC1 251935Z 02014G19KT 25/08 A2996 RMK A01 T02450079  RH  035%=      5-min Rain = 0
KDC1 251936Z 02015KT 24/08 A2996 RMK A01 T02420083  RH  036%=      5-min Rain = 0
KDC1 251937Z 03015KT 24/08 A2996 RMK A01 T02420082  RH  036%=      5-min Rain = 0
KDC1 251938Z 03008KT 24/08 A2996 RMK A01 T02430079  RH  035%=      5-min Rain = 0
KDC1 251939Z 05006KT 24/08 A2995 RMK A01 T02420080  RH  035%=      5-min Rain = 0
KDC1 251940Z 03009G15KT 24/08 A2996 RMK A01 T02430080  RH  035%=      5-min Rain = 0
KDC1 251941Z 02015KT 25/09 A2996 RMK A01 T02450085  RH  036%=      5-min Rain = 0
KDC1 251942Z 03012KT 24/08 A2996 RMK A01 T02420083  RH  036%=      5-min Rain = 0
KDC1 251943Z 04012KT 24/08 A2996 RMK A01 T02380081  RH  037%=      5-min Rain = 0
KDC1 251944Z 03014KT 24/08 A2996 RMK A01 T02390084  RH  037%=      5-min Rain = 0
KDC1 251945Z 04015KT 24/08 A2996 RMK A01 T02410083  RH  036%=      5-min Rain = 0
KDC1 251946Z 04010G16KT 24/08 A2995 RMK A01 T02390082  RH  037%=      5-min Rain = 0
KDC1 251947Z 05011KT 24/08 A2995 RMK A01 T02380084  RH  037%=      5-min Rain = 0
KDC1 251948Z 05011KT 24/08 A2995 RMK A01 T02420084  RH  036%=      5-min Rain = 0
KDC1 251949Z 05011KT 25/08 A2995 RMK A01 T02450081  RH  035%=      5-min Rain = 0
KDC1 251950Z 04010KT 25/08 A2995 RMK A01 T02450081  RH  035%=      5-min Rain = 0
KDC1 251951Z 06010KT 25/08 A2995 RMK A01 T02460082  RH  035%=      5-min Rain = 0
KDC1 251952Z 06012G19KT 25/08 A2995 RMK A01 T02450081  RH  035%=      5-min Rain = 0
KDC1 251953Z 05015KT 25/08 A2996 RMK A01 T02480082  RH  035%=      5-min Rain = 0
KDC1 251954Z 06012KT 25/08 A2995 RMK A01 T02480081  RH  034%=      5-min Rain = 0
KDC1 251955Z 06013KT 25/08 A2995 RMK A01 T02460082  RH  035%=      5-min Rain = 0
KDC1 251956Z 05014KT 25/08 A2995 RMK A01 T02470083  RH  035%=      5-min Rain = 0
KDC1 251957Z 04012KT 25/08 A2995 RMK A01 T02480082  RH  035%=      5-min Rain = 0
KDC1 251958Z 05014KT 25/08 A2996 RMK A01 T02470082  RH  035%=      5-min Rain = 0
KDC1 251959Z 04015KT 24/08 A2996 RMK A01 T02440083  RH  036%=      5-min Rain = 0
KDC1 252000Z 06012KT 24/08 A2996 RMK A01 T02400076  RH  035%=      5-min Rain = 0
KDC1 252001Z 05009KT 24/08 A2995 RMK A01 T02370075  RH  035%=      5-min Rain = 0
KDC1 252002Z 05012KT 24/08 A2996 RMK A01 T02350078  RH  037%=      5-min Rain = 0
KDC1 252003Z 05014KT 24/08 A2996 RMK A01 T02350081  RH  037%=      5-min Rain = 0
KDC1 252004Z 06012KT 24/08 A2996 RMK A01 T02370080  RH  037%=      5-min Rain = 0
KDC1 252005Z 06013KT 24/08 A2996 RMK A01 T02380081  RH  037%=      5-min Rain = 0
KDC1 252006Z 05011KT 24/08 A2996 RMK A01 T02370077  RH  036%=      5-min Rain = 0
KDC1 252007Z 05009KT 24/08 A2996 RMK A01 T02370077  RH  036%=      5-min Rain = 0
KDC1 252008Z 04009KT 24/08 A2996 RMK A01 T02400081  RH  036%=      5-min Rain = 0
KDC1 252009Z 02014KT 25/09 A2996 RMK A01 T02450085  RH  036%=      5-min Rain = 0
KDC1 252010Z 03013KT 25/08 A2996 RMK A01 T02450081  RH  035%=      5-min Rain = 0
KDC1 252011Z 02008KT 24/08 A2995 RMK A01 T02420078  RH  035%=      5-min Rain = 0
KDC1 252012Z 04009G14KT 24/08 A2995 RMK A01 T02400078  RH  035%=      5-min Rain = 0
KDC1 252013Z 04009KT 24/08 A2995 RMK A01 T02400078  RH  035%=      5-min Rain = 0
KDC1 252014Z 05014KT 24/08 A2995 RMK A01 T02440079  RH  035%=      5-min Rain = 0
KDC1 252015Z 04011KT 24/08 A2995 RMK A01 T02440079  RH  035%=      5-min Rain = 0
KDC1 252016Z 04010G15KT 25/08 A2995 RMK A01 T02470083  RH  035%=      5-min Rain = 0
KDC1 252017Z 04014KT 25/08 A2995 RMK A01 T02510081  RH  034%=      5-min Rain = 0
KDC1 252018Z 03013G18KT 25/08 A2995 RMK A01 T02500078  RH  033%=      5-min Rain = 0
KDC1 252019Z 03012KT 25/08 A2995 RMK A01 T02470078  RH  034%=      5-min Rain = 0
KDC1 252020Z 05014G19KT 25/08 A2995 RMK A01 T02460082  RH  035%=      5-min Rain = 0
KDC1 252021Z 06012KT 25/08 A2995 RMK A01 T02470076  RH  034%=      5-min Rain = 0
KDC1 252022Z 07012KT 25/08 A2995 RMK A01 T02490077  RH  033%=      5-min Rain = 0
KDC1 252023Z 06011KT 25/08 A2995 RMK A01 T02540078  RH  033%=      5-min Rain = 0
KDC1 252024Z 04012G18KT 26/08 A2995 RMK A01 T02570082  RH  033%=      5-min Rain = 0
KDC1 252025Z 05012G17KT 26/08 A2995 RMK A01 T02580078  RH  032%=      5-min Rain = 0
KDC1 252026Z 04008KT 26/08 A2995 RMK A01 T02550078  RH  032%=      5-min Rain = 0
KDC1 252027Z 04011G16KT 26/08 A2995 RMK A01 T02560082  RH  033%=      5-min Rain = 0
KDC1 252028Z 04011KT 26/08 A2995 RMK A01 T02590081  RH  032%=      5-min Rain = 0
KDC1 252029Z 04012G17KT 26/08 A2995 RMK A01 T02620080  RH  032%=      5-min Rain = 0
KDC1 252030Z 03013G18KT 26/08 A2995 RMK A01 T02590076  RH  031%=      5-min Rain = 0
KDC1 252031Z 04009G17KT 26/08 A2995 RMK A01 T02550077  RH  032%=      5-min Rain = 0
KDC1 252032Z 02015KT 26/09 A2995 RMK A01 T02570085  RH  034%=      5-min Rain = 0
KDC1 252033Z 02014G19KT 26/09 A2995 RMK A01 T02570086  RH  034%=      5-min Rain = 0
KDC1 252034Z 02012KT 26/08 A2995 RMK A01 T02550084  RH  034%=      5-min Rain = 0
KDC1 252035Z 03009KT 25/08 A2995 RMK A01 T02520077  RH  033%=      5-min Rain = 0
KDC1 252036Z 04012KT 25/08 A2995 RMK A01 T02500078  RH  034%=      5-min Rain = 0
KDC1 252037Z 04013KT 25/08 A2995 RMK A01 T02520078  RH  033%=      5-min Rain = 0
KDC1 252038Z 03011KT 25/08 A2994 RMK A01 T02540079  RH  033%=      5-min Rain = 0
KDC1 252039Z 03011KT 26/08 A2994 RMK A01 T02560078  RH  032%=      5-min Rain = 0
KDC1 252040Z 04013KT 26/08 A2995 RMK A01 T02550078  RH  032%=      5-min Rain = 0
KDC1 252041Z 03013KT 25/08 A2994 RMK A01 T02530076  RH  032%=      5-min Rain = 0
KDC1 252042Z 04014G19KT 25/08 A2994 RMK A01 T02510077  RH  033%=      5-min Rain = 0
KDC1 252043Z 03014KT 25/08 A2994 RMK A01 T02520078  RH  033%=      5-min Rain = 0
KDC1 252044Z 05010KT 25/08 A2994 RMK A01 T02520079  RH  033%=      5-min Rain = 0
KDC1 252045Z 03012KT 26/08 A2994 RMK A01 T02550081  RH  033%=      5-min Rain = 0
KDC1 252046Z 04012KT 26/08 A2994 RMK A01 T02560081  RH  033%=      5-min Rain = 0
KDC1 252047Z 07012G17KT 26/08 A2994 RMK A01 T02560079  RH  032%=      5-min Rain = 0
KDC1 252048Z 04012KT 26/08 A2994 RMK A01 T02580079  RH  032%=      5-min Rain = 0
KDC1 252049Z 04012KT 26/08 A2994 RMK A01 T02580079  RH  032%=      5-min Rain = 0
KDC1 252050Z 02015G20KT 25/08 A2994 RMK A01 T02540081  RH  033%=      5-min Rain = 0
KDC1 252051Z 02014G19KT 25/08 A2994 RMK A01 T02520080  RH  034%=      5-min Rain = 0
KDC1 252052Z 02012KT 25/08 A2994 RMK A01 T02490080  RH  034%=      5-min Rain = 0
KDC1 252053Z 02012G17KT 25/09 A2994 RMK A01 T02490085  RH  035%=      5-min Rain = 0
KDC1 252054Z 03015G20KT 25/08 A2994 RMK A01 T02510082  RH  034%=      5-min Rain = 0
KDC1 252055Z 05015G20KT 25/08 A2995 RMK A01 T02500079  RH  034%=      5-min Rain = 0
KDC1 252056Z 06011KT 25/08 A2994 RMK A01 T02490077  RH  033%=      5-min Rain = 0
KDC1 252057Z 04013KT 25/08 A2994 RMK A01 T02500078  RH  033%=      5-min Rain = 0
KDC1 252058Z 04011KT 25/08 A2994 RMK A01 T02520079  RH  033%=      5-min Rain = 0
KDC1 252059Z 03010KT 25/08 A2994 RMK A01 T02530076  RH  032%=      5-min Rain = 0
KDC1 252100Z 03010KT 25/07 A2994 RMK A01 T02510074  RH  032%=      5-min Rain = 0
KDC1 252101Z 03007KT 25/07 A2994 RMK A01 T02490073  RH  032%=      5-min Rain = 0
KDC1 252102Z 02010G15KT 25/08 A2994 RMK A01 T02500075  RH  033%=      5-min Rain = 0
KDC1 252103Z 03012KT 25/08 A2994 RMK A01 T02510080  RH  034%=      5-min Rain = 0
KDC1 252104Z 02011KT 25/08 A2994 RMK A01 T02520080  RH  034%=      5-min Rain = 0
KDC1 252105Z 05011KT 25/08 A2994 RMK A01 T02510076  RH  033%=      5-min Rain = 0
KDC1 252106Z 06011KT 25/07 A2994 RMK A01 T02510074  RH  032%=      5-min Rain = 0
KDC1 252107Z 04011KT 25/08 A2994 RMK A01 T02520077  RH  033%=      5-min Rain = 0
KDC1 252108Z 04010G15KT 26/08 A2994 RMK A01 T02560081  RH  033%=      5-min Rain = 0
KDC1 252109Z 04015KT 26/08 A2995 RMK A01 T02570080  RH  032%=      5-min Rain = 0
KDC1 252110Z 04014G19KT 26/08 A2995 RMK A01 T02550077  RH  032%=      5-min Rain = 0
KDC1 252111Z 04005G12KT 25/08 A2995 RMK A01 T02540078  RH  033%=      5-min Rain = 0
KDC1 252112Z 08008KT 25/08 A2994 RMK A01 T02530077  RH  032%=      5-min Rain = 0
KDC1 252113Z 05009KT 25/08 A2994 RMK A01 T02530078  RH  033%=      5-min Rain = 0
KDC1 252114Z 04009KT 25/08 A2994 RMK A01 T02510078  RH  033%=      5-min Rain = 0
KDC1 252115Z 04009KT 25/08 A2994 RMK A01 T02500081  RH  034%=      5-min Rain = 0
KDC1 252116Z 03012G19KT 26/09 A2994 RMK A01 T02560085  RH  034%=      5-min Rain = 0
KDC1 252117Z 03012KT 26/08 A2994 RMK A01 T02590084  RH  033%=      5-min Rain = 0
KDC1 252118Z 02014KT 26/09 A2994 RMK A01 T02560085  RH  034%=      5-min Rain = 0
KDC1 252119Z 01011KT 25/09 A2994 RMK A01 T02530087  RH  035%=      5-min Rain = 0
KDC1 252120Z 05013KT 25/09 A2994 RMK A01 T02540086  RH  034%=      5-min Rain = 0
KDC1 252121Z 06012KT 26/08 A2994 RMK A01 T02590083  RH  033%=      5-min Rain = 0
KDC1 252122Z 04015G20KT 26/08 A2994 RMK A01 T02570082  RH  033%=      5-min Rain = 0
KDC1 252123Z 04015G21KT 25/08 A2994 RMK A01 T02540083  RH  034%=      5-min Rain = 0
KDC1 252124Z 03017KT 25/08 A2995 RMK A01 T02510083  RH  034%=      5-min Rain = 0
KDC1 252125Z 03011KT 25/08 A2994 RMK A01 T02500083  RH  035%=      5-min Rain = 0
KDC1 252126Z 02010KT 25/08 A2994 RMK A01 T02500084  RH  035%=      5-min Rain = 0
KDC1 252127Z 01011KT 25/09 A2994 RMK A01 T02520086  RH  035%=      5-min Rain = 0
KDC1 252128Z 01012KT 25/08 A2994 RMK A01 T02530084  RH  034%=      5-min Rain = 0
KDC1 252129Z 01013G19KT 25/09 A2994 RMK A01 T02530087  RH  035%=      5-min Rain = 0
KDC1 252130Z 04012KT 25/09 A2994 RMK A01 T02540091  RH  036%=      5-min Rain = 0
KDC1 252131Z 05012KT 26/08 A2994 RMK A01 T02550082  RH  033%=      5-min Rain = 0
KDC1 252132Z 04011KT 26/08 A2994 RMK A01 T02560081  RH  033%=      5-min Rain = 0
KDC1 252133Z 03013KT 26/08 A2994 RMK A01 T02550082  RH  033%=      5-min Rain = 0
KDC1 252134Z 02018KT 25/08 A2994 RMK A01 T02530083  RH  034%=      5-min Rain = 0
KDC1 252135Z 03017KT 25/08 A2994 RMK A01 T02520083  RH  034%=      5-min Rain = 0
KDC1 252136Z 03012KT 25/08 A2994 RMK A01 T02510081  RH  034%=      5-min Rain = 0
KDC1 252137Z 03012KT 25/08 A2994 RMK A01 T02510080  RH  034%=      5-min Rain = 0
KDC1 252138Z 04012KT 25/08 A2994 RMK A01 T02510080  RH  034%=      5-min Rain = 0
KDC1 252139Z 04012KT 25/08 A2994 RMK A01 T02520079  RH  033%=      5-min Rain = 0
KDC1 252140Z 04012KT 25/08 A2994 RMK A01 T02520078  RH  033%=      5-min Rain = 0
KDC1 252141Z 03008KT 25/08 A2994 RMK A01 T02510078  RH  033%=      5-min Rain = 0
KDC1 252142Z 03010KT 25/08 A2994 RMK A01 T02520082  RH  034%=      5-min Rain = 0
KDC1 252143Z 04009KT 26/08 A2994 RMK A01 T02560080  RH  033%=      5-min Rain = 0
KDC1 252144Z 03010KT 26/08 A2994 RMK A01 T02580079  RH  032%=      5-min Rain = 0
KDC1 252145Z 02009KT 26/07 A2994 RMK A01 T02550074  RH  032%=      5-min Rain = 0
KDC1 252146Z 02009KT 25/08 A2994 RMK A01 T02530077  RH  033%=      5-min Rain = 0
KDC1 252147Z 02010KT 25/08 A2994 RMK A01 T02530077  RH  033%=      5-min Rain = 0
KDC1 252148Z 05013G18KT 25/08 A2994 RMK A01 T02540080  RH  033%=      5-min Rain = 0
KDC1 252149Z 05012KT 26/08 A2995 RMK A01 T02560078  RH  032%=      5-min Rain = 0
KDC1 252150Z 04012KT 26/08 A2994 RMK A01 T02550078  RH  032%=      5-min Rain = 0
KDC1 252151Z 03011KT 25/08 A2994 RMK A01 T02530078  RH  033%=      5-min Rain = 0
KDC1 252152Z 03008G13KT 25/08 A2994 RMK A01 T02530080  RH  033%=      5-min Rain = 0
KDC1 252153Z 02007KT 25/08 A2994 RMK A01 T02530077  RH  033%=      5-min Rain = 0
KDC1 252154Z 03009KT 25/08 A2994 RMK A01 T02500078  RH  033%=      5-min Rain = 0
KDC1 252155Z 03012G17KT 25/08 A2994 RMK A01 T02490082  RH  034%=      5-min Rain = 0
KDC1 252156Z 02014KT 25/08 A2994 RMK A01 T02510084  RH  035%=      5-min Rain = 0
KDC1 252157Z 03014KT 25/09 A2994 RMK A01 T02520085  RH  035%=      5-min Rain = 0
KDC1 252158Z 03013KT 25/08 A2994 RMK A01 T02530083  RH  034%=      5-min Rain = 0
KDC1 252159Z 01011KT 25/08 A2994 RMK A01 T02540084  RH  034%=      5-min Rain = 0
KDC1 252200Z 01012KT 25/08 A2994 RMK A01 T02540082  RH  034%=      5-min Rain = 0
KDC1 252201Z 01009KT 25/08 A2994 RMK A01 T02500084  RH  035%=      5-min Rain = 0
KDC1 252202Z 02013KT 25/09 A2994 RMK A01 T02500086  RH  035%=      5-min Rain = 0
KDC1 252203Z 03013KT 25/08 A2994 RMK A01 T02510082  RH  034%=      5-min Rain = 0
KDC1 252204Z 03012KT 25/08 A2994 RMK A01 T02510082  RH  034%=      5-min Rain = 0
KDC1 252205Z 03008KT 25/08 A2994 RMK A01 T02470080  RH  034%=      5-min Rain = 0
KDC1 252206Z 00008KT 25/08 A2994 RMK A01 T02460081  RH  035%=      5-min Rain = 0
KDC1 252207Z 01010KT 25/08 A2994 RMK A01 T02470080  RH  035%=      5-min Rain = 0
KDC1 252208Z 01011KT 25/08 A2994 RMK A01 T02480083  RH  035%=      5-min Rain = 0
KDC1 252209Z 36011KT 25/09 A2994 RMK A01 T02510089  RH  036%=      5-min Rain = 0
KDC1 252210Z 02012KT 25/09 A2994 RMK A01 T02540087  RH  035%=      5-min Rain = 0
KDC1 252211Z 02012KT 26/08 A2994 RMK A01 T02550084  RH  034%=      5-min Rain = 0
KDC1 252212Z 03014KT 25/08 A2994 RMK A01 T02530081  RH  033%=      5-min Rain = 0
KDC1 252213Z 02012KT 25/08 A2994 RMK A01 T02510081  RH  034%=      5-min Rain = 0
KDC1 252214Z 03010KT 25/08 A2994 RMK A01 T02520079  RH  033%=      5-min Rain = 0
KDC1 252215Z 01008KT 25/08 A2994 RMK A01 T02530078  RH  033%=      5-min Rain = 0
KDC1 252216Z 02009KT 25/08 A2994 RMK A01 T02530079  RH  033%=      5-min Rain = 0
KDC1 252217Z 02010KT 25/08 A2994 RMK A01 T02520078  RH  033%=      5-min Rain = 0
KDC1 252218Z 01011KT 25/08 A2994 RMK A01 T02510079  RH  033%=      5-min Rain = 0
KDC1 252219Z 36010KT 25/08 A2994 RMK A01 T02510080  RH  034%=      5-min Rain = 0
KDC1 252220Z 00008KT 25/08 A2994 RMK A01 T02530078  RH  033%=      5-min Rain = 0
KDC1 252221Z 00008KT 25/08 A2994 RMK A01 T02530079  RH  033%=      5-min Rain = 0
KDC1 252222Z 03009KT 25/08 A2994 RMK A01 T02540077  RH  032%=      5-min Rain = 0
KDC1 252223Z 02010KT 25/08 A2994 RMK A01 T02530078  RH  033%=      5-min Rain = 0
KDC1 252224Z 02011KT 25/08 A2994 RMK A01 T02510084  RH  034%=      5-min Rain = 0
KDC1 252225Z 03008KT 25/09 A2994 RMK A01 T02510086  RH  035%=      5-min Rain = 0
KDC1 252226Z 02009KT 26/09 A2994 RMK A01 T02550086  RH  034%=      5-min Rain = 0
KDC1 252227Z 36009KT 26/08 A2994 RMK A01 T02560084  RH  034%=      5-min Rain = 0
KDC1 252228Z 00009KT 26/08 A2994 RMK A01 T02560079  RH  032%=      5-min Rain = 0
KDC1 252229Z 01011KT 26/08 A2994 RMK A01 T02560082  RH  033%=      5-min Rain = 0
KDC1 252230Z 00009KT 26/08 A2994 RMK A01 T02550084  RH  034%=      5-min Rain = 0
KDC1 252231Z 36010KT 26/08 A2994 RMK A01 T02560081  RH  033%=      5-min Rain = 0
KDC1 252232Z 00010KT 26/08 A2994 RMK A01 T02560078  RH  032%=      5-min Rain = 0
KDC1 252233Z 35009KT 25/07 A2994 RMK A01 T02530074  RH  032%=      5-min Rain = 0
KDC1 252234Z 34009KT 25/08 A2994 RMK A01 T02510075  RH  032%=      5-min Rain = 0
KDC1 252235Z 01013KT 25/08 A2994 RMK A01 T02500079  RH  034%=      5-min Rain = 0
KDC1 252236Z 03013KT 25/08 A2994 RMK A01 T02510083  RH  034%=      5-min Rain = 0
KDC1 252237Z 03012KT 25/08 A2994 RMK A01 T02530081  RH  033%=      5-min Rain = 0
KDC1 252238Z 03011KT 25/08 A2994 RMK A01 T02520080  RH  033%=      5-min Rain = 0
KDC1 252239Z 03011KT 25/08 A2994 RMK A01 T02520078  RH  033%=      5-min Rain = 0
KDC1 252240Z 05008KT 25/08 A2994 RMK A01 T02520078  RH  033%=      5-min Rain = 0
KDC1 252241Z 03005G10KT 25/08 A2994 RMK A01 T02530076  RH  032%=      5-min Rain = 0
KDC1 252242Z 04009KT 25/08 A2994 RMK A01 T02540078  RH  033%=      5-min Rain = 0
KDC1 252243Z 06009KT 26/08 A2994 RMK A01 T02570077  RH  032%=      5-min Rain = 0
KDC1 252244Z 04010KT 26/07 A2995 RMK A01 T02570074  RH  031%=      5-min Rain = 0
KDC1 252245Z 02006G11KT 25/08 A2995 RMK A01 T02530075  RH  032%=      5-min Rain = 0
KDC1 252246Z 02009KT 25/08 A2994 RMK A01 T02510076  RH  033%=      5-min Rain = 0
KDC1 252247Z 01011KT 25/08 A2994 RMK A01 T02510078  RH  033%=      5-min Rain = 0
KDC1 252248Z 02008KT 25/08 A2994 RMK A01 T02510077  RH  033%=      5-min Rain = 0
KDC1 252249Z 02007KT 25/08 A2994 RMK A01 T02540080  RH  033%=      5-min Rain = 0
KDC1 252250Z 02010KT 26/08 A2994 RMK A01 T02570079  RH  032%=      5-min Rain = 0
KDC1 252251Z 03010KT 26/08 A2994 RMK A01 T02550079  RH  033%=      5-min Rain = 0
KDC1 252252Z 02012KT 25/08 A2994 RMK A01 T02540081  RH  033%=      5-min Rain = 0
KDC1 252253Z 02011KT 26/08 A2994 RMK A01 T02550081  RH  033%=      5-min Rain = 0
KDC1 252254Z 01012KT 26/08 A2994 RMK A01 T02550080  RH  033%=      5-min Rain = 0
KDC1 252255Z 01010KT 25/08 A2994 RMK A01 T02540077  RH  032%=      5-min Rain = 0
KDC1 252256Z 02008KT 25/08 A2994 RMK A01 T02530076  RH  032%=      5-min Rain = 0
KDC1 252257Z 01009G14KT 25/08 A2994 RMK A01 T02510078  RH  033%=      5-min Rain = 0
KDC1 252258Z 01011KT 25/08 A2994 RMK A01 T02520082  RH  034%=      5-min Rain = 0
KDC1 252259Z 02010KT 25/08 A2994 RMK A01 T02520079  RH  033%=      5-min Rain = 0
KDC1 252300Z 36012KT 25/08 A2994 RMK A01 T02520082  RH  034%=      5-min Rain = 0
KDC1 252301Z 35012KT 25/08 A2994 RMK A01 T02530081  RH  033%=      5-min Rain = 0
KDC1 252302Z 35010KT 25/08 A2994 RMK A01 T02520077  RH  033%=      5-min Rain = 0
KDC1 252303Z 34006KT 25/08 A2994 RMK A01 T02500076  RH  033%=      5-min Rain = 0
KDC1 252304Z 01010KT 25/08 A2994 RMK A01 T02500078  RH  033%=      5-min Rain = 0
KDC1 252305Z 03008KT 25/08 A2994 RMK A01 T02510079  RH  034%=      5-min Rain = 0
KDC1 252306Z 04007KT 25/08 A2994 RMK A01 T02520079  RH  033%=      5-min Rain = 0
KDC1 252307Z 03008KT 25/08 A2994 RMK A01 T02530078  RH  033%=      5-min Rain = 0
KDC1 252308Z 03008KT 25/08 A2994 RMK A01 T02530078  RH  033%=      5-min Rain = 0
KDC1 252309Z 02009KT 25/08 A2994 RMK A01 T02520081  RH  034%=      5-min Rain = 0
KDC1 252310Z 02010KT 25/08 A2994 RMK A01 T02520083  RH  034%=      5-min Rain = 0
KDC1 252311Z 02012KT 25/08 A2994 RMK A01 T02530083  RH  034%=      5-min Rain = 0
KDC1 252312Z 01013KT 25/08 A2994 RMK A01 T02540083  RH  034%=      5-min Rain = 0
KDC1 252313Z 01015KT 25/08 A2994 RMK A01 T02520080  RH  033%=      5-min Rain = 0
KDC1 252314Z 01012KT 25/08 A2994 RMK A01 T02500082  RH  034%=      5-min Rain = 0
KDC1 252315Z 01012KT 25/08 A2994 RMK A01 T02490082  RH  035%=      5-min Rain = 0
KDC1 252316Z 01010KT 25/08 A2994 RMK A01 T02480082  RH  035%=      5-min Rain = 0
KDC1 252317Z 02010KT 25/09 A2994 RMK A01 T02490085  RH  035%=      5-min Rain = 0
KDC1 252318Z 02012KT 25/08 A2994 RMK A01 T02510081  RH  034%=      5-min Rain = 0
KDC1 252319Z 02010KT 25/08 A2994 RMK A01 T02520079  RH  033%=      5-min Rain = 0
KDC1 252320Z 01012KT 25/08 A2994 RMK A01 T02500078  RH  033%=      5-min Rain = 0
KDC1 252321Z 01010KT 25/08 A2994 RMK A01 T02480078  RH  034%=      5-min Rain = 0
KDC1 252322Z 00009KT 25/08 A2994 RMK A01 T02480081  RH  035%=      5-min Rain = 0
KDC1 252323Z 01009KT 25/08 A2994 RMK A01 T02490083  RH  035%=      5-min Rain = 0
KDC1 252324Z 00010G15KT 25/08 A2994 RMK A01 T02490081  RH  034%=      5-min Rain = 0
KDC1 252325Z 01010KT 25/08 A2994 RMK A01 T02490081  RH  034%=      5-min Rain = 0
KDC1 252326Z 02011KT 25/08 A2994 RMK A01 T02490084  RH  035%=      5-min Rain = 0
KDC1 252327Z 01011KT 25/09 A2994 RMK A01 T02490086  RH  035%=      5-min Rain = 0
KDC1 252328Z 01011KT 25/08 A2994 RMK A01 T02490083  RH  035%=      5-min Rain = 0
KDC1 252329Z 01014KT 25/08 A2994 RMK A01 T02480084  RH  035%=      5-min Rain = 0
KDC1 252330Z 01014G19KT 25/08 A2994 RMK A01 T02470080  RH  034%=      5-min Rain = 0
KDC1 252331Z 03012G17KT 25/08 A2994 RMK A01 T02480081  RH  034%=      5-min Rain = 0
KDC1 252332Z 02014KT 25/08 A2994 RMK A01 T02500082  RH  034%=      5-min Rain = 0
KDC1 252333Z 03015KT 25/08 A2994 RMK A01 T02510077  RH  033%=      5-min Rain = 0
KDC1 252334Z 04015KT 25/08 A2994 RMK A01 T02490078  RH  034%=      5-min Rain = 0
KDC1 252335Z 04014KT 25/08 A2994 RMK A01 T02480079  RH  034%=      5-min Rain = 0
KDC1 252336Z 03011G17KT 25/08 A2994 RMK A01 T02470078  RH  034%=      5-min Rain = 0
KDC1 252337Z 04010KT 25/08 A2994 RMK A01 T02490081  RH  034%=      5-min Rain = 0
KDC1 252338Z 02010KT 25/08 A2994 RMK A01 T02500083  RH  034%=      5-min Rain = 0
KDC1 252339Z 02013KT 25/08 A2994 RMK A01 T02510082  RH  034%=      5-min Rain = 0
KDC1 252340Z 02012KT 25/08 A2994 RMK A01 T02500081  RH  034%=      5-min Rain = 0
KDC1 252341Z 01012KT 25/08 A2994 RMK A01 T02490080  RH  034%=      5-min Rain = 0
KDC1 252342Z 01012KT 25/08 A2994 RMK A01 T02470080  RH  035%=      5-min Rain = 0
KDC1 252343Z 01011KT 25/08 A2994 RMK A01 T02470081  RH  035%=      5-min Rain = 0
KDC1 252344Z 03011KT 25/08 A2994 RMK A01 T02460082  RH  035%=      5-min Rain = 0
KDC1 252345Z 03013KT 25/08 A2994 RMK A01 T02460078  RH  034%=      5-min Rain = 0
KDC1 252346Z 02011KT 25/08 A2994 RMK A01 T02460076  RH  034%=      5-min Rain = 0
KDC1 252347Z 03010KT 25/08 A2994 RMK A01 T02450077  RH  034%=      5-min Rain = 0
KDC1 252348Z 02011KT 25/08 A2994 RMK A01 T02470078  RH  034%=      5-min Rain = 0
KDC1 252349Z 02010KT 25/08 A2994 RMK A01 T02470078  RH  034%=      5-min Rain = 0
KDC1 252350Z 01010KT 25/08 A2994 RMK A01 T02480079  RH  034%=      5-min Rain = 0
KDC1 252351Z 02010KT 25/08 A2994 RMK A01 T02480079  RH  034%=      5-min Rain = 0
KDC1 252352Z 04010KT 25/08 A2994 RMK A01 T02470078  RH  034%=      5-min Rain = 0
KDC1 252353Z 04010KT 25/08 A2994 RMK A01 T02460078  RH  034%=      5-min Rain = 0
KDC1 252354Z 03008KT 25/08 A2994 RMK A01 T02470077  RH  034%=      5-min Rain = 0
KDC1 252355Z 02010KT 25/08 A2994 RMK A01 T02480078  RH  034%=      5-min Rain = 0
KDC1 252356Z 04013KT 25/08 A2995 RMK A01 T02480078  RH  034%=      5-min Rain = 0
KDC1 252357Z 04013KT 25/08 A2995 RMK A01 T02470077  RH  034%=      5-min Rain = 0
KDC1 252358Z 03009KT 25/08 A2994 RMK A01 T02450076  RH  034%=      5-min Rain = 0
KDC1 252359Z 02012KT 25/08 A2995 RMK A01 T02450078  RH  034%=      5-min Rain = 0
KDC1 260000Z 03010KT 25/08 A2995 RMK A01 T02450076  RH  034%=      5-min Rain = 0
KDC1 260001Z 02010KT 24/08 A2994 RMK A01 T02440076  RH  034%=      5-min Rain = 0
KDC1 260002Z 02010KT 24/08 A2994 RMK A01 T02440077  RH  034%=      5-min Rain = 0
KDC1 260003Z 02010KT 24/08 A2995 RMK A01 T02430078  RH  035%=      5-min Rain = 0
KDC1 260004Z 01009KT 24/08 A2995 RMK A01 T02430081  RH  036%=      5-min Rain = 0
KDC1 260005Z 01009KT 24/08 A2995 RMK A01 T02430080  RH  035%=      5-min Rain = 0
KDC1 260006Z 02009KT 24/08 A2995 RMK A01 T02440081  RH  035%=      5-min Rain = 0
KDC1 260007Z 03011KT 24/08 A2995 RMK A01 T02440080  RH  035%=      5-min Rain = 0
KDC1 260008Z 02012KT 24/08 A2995 RMK A01 T02440077  RH  035%=      5-min Rain = 0
KDC1 260009Z 02011KT 24/08 A2995 RMK A01 T02430077  RH  035%=      5-min Rain = 0
KDC1 260010Z 01009KT 24/08 A2995 RMK A01 T02420078  RH  035%=      5-min Rain = 0
KDC1 260011Z 02011KT 24/08 A2995 RMK A01 T02420077  RH  035%=      5-min Rain = 0
KDC1 260012Z 03010KT 24/08 A2995 RMK A01 T02420078  RH  035%=      5-min Rain = 0
KDC1 260013Z 04009KT 24/08 A2995 RMK A01 T02420078  RH  035%=      5-min Rain = 0
KDC1 260014Z 04010KT 24/08 A2995 RMK A01 T02440077  RH  034%=      5-min Rain = 0
KDC1 260015Z 02013KT 24/08 A2995 RMK A01 T02440078  RH  035%=      5-min Rain = 0
KDC1 260016Z 03010KT 24/08 A2995 RMK A01 T02420078  RH  035%=      5-min Rain = 0
KDC1 260017Z 03008KT 24/08 A2995 RMK A01 T02430077  RH  035%=      5-min Rain = 0
KDC1 260018Z 04012KT 24/08 A2995 RMK A01 T02420077  RH  035%=      5-min Rain = 0
KDC1 260019Z 04011KT 24/08 A2995 RMK A01 T02420078  RH  035%=      5-min Rain = 0
KDC1 260020Z 04011KT 24/08 A2995 RMK A01 T02420077  RH  035%=      5-min Rain = 0
KDC1 260021Z 03011KT 24/08 A2995 RMK A01 T02420075  RH  034%=      5-min Rain = 0
KDC1 260022Z 03009KT 24/08 A2995 RMK A01 T02420075  RH  035%=      5-min Rain = 0
KDC1 260023Z 03008KT 24/08 A2995 RMK A01 T02410076  RH  035%=      5-min Rain = 0
KDC1 260024Z 03009KT 24/08 A2995 RMK A01 T02420076  RH  035%=      5-min Rain = 0
KDC1 260025Z 02010KT 24/08 A2995 RMK A01 T02420076  RH  035%=      5-min Rain = 0
KDC1 260026Z 01010KT 24/08 A2995 RMK A01 T02410076  RH  035%=      5-min Rain = 0
KDC1 260027Z 02010KT 24/08 A2995 RMK A01 T02410077  RH  035%=      5-min Rain = 0
KDC1 260028Z 02010KT 24/08 A2995 RMK A01 T02410077  RH  035%=      5-min Rain = 0
KDC1 260029Z 01007KT 24/08 A2995 RMK A01 T02410079  RH  035%=      5-min Rain = 0
KDC1 260030Z 02009KT 24/08 A2995 RMK A01 T02410080  RH  036%=      5-min Rain = 0
KDC1 260031Z 03009KT 24/08 A2995 RMK A01 T02400080  RH  036%=      5-min Rain = 0
KDC1 260032Z 04011KT 24/08 A2995 RMK A01 T02400077  RH  035%=      5-min Rain = 0
KDC1 260033Z 04014KT 24/07 A2995 RMK A01 T02400074  RH  035%=      5-min Rain = 0
KDC1 260034Z 03014KT 24/07 A2995 RMK A01 T02390074  RH  035%=      5-min Rain = 0
KDC1 260035Z 02011KT 24/08 A2995 RMK A01 T02390076  RH  035%=      5-min Rain = 0
KDC1 260036Z 01012KT 24/08 A2995 RMK A01 T02390076  RH  035%=      5-min Rain = 0
KDC1 260037Z 03011KT 24/08 A2995 RMK A01 T02380076  RH  035%=      5-min Rain = 0
KDC1 260038Z 05011KT 24/08 A2995 RMK A01 T02380075  RH  035%=      5-min Rain = 0
KDC1 260039Z 04012KT 24/07 A2995 RMK A01 T02380073  RH  035%=      5-min Rain = 0
KDC1 260040Z 04013KT 24/07 A2995 RMK A01 T02380074  RH  035%=      5-min Rain = 0
KDC1 260041Z 05009KT 24/07 A2995 RMK A01 T02380073  RH  035%=      5-min Rain = 0
KDC1 260042Z 05009KT 24/07 A2995 RMK A01 T02380074  RH  035%=      5-min Rain = 0
KDC1 260043Z 04010G15KT 24/08 A2995 RMK A01 T02390076  RH  035%=      5-min Rain = 0
KDC1 260044Z 03012KT 24/08 A2995 RMK A01 T02390076  RH  035%=      5-min Rain = 0
KDC1 260045Z 03014KT 24/08 A2996 RMK A01 T02390077  RH  035%=      5-min Rain = 0
KDC1 260046Z 03013KT 24/08 A2996 RMK A01 T02380076  RH  035%=      5-min Rain = 0
KDC1 260047Z 02010G17KT 24/08 A2996 RMK A01 T02370077  RH  036%=      5-min Rain = 0
KDC1 260048Z 03014KT 24/08 A2996 RMK A01 T02360077  RH  036%=      5-min Rain = 0
KDC1 260049Z 03010KT 24/08 A2996 RMK A01 T02360076  RH  036%=      5-min Rain = 0
KDC1 260050Z 03009KT 24/08 A2996 RMK A01 T02350076  RH  036%=      5-min Rain = 0
KDC1 260051Z 01008KT 24/08 A2996 RMK A01 T02360078  RH  037%=      5-min Rain = 0
KDC1 260052Z 02011KT 24/08 A2996 RMK A01 T02350080  RH  037%=      5-min Rain = 0
KDC1 260053Z 03011KT 23/08 A2996 RMK A01 T02340080  RH  037%=      5-min Rain = 0
KDC1 260054Z 04011KT 23/08 A2996 RMK A01 T02340077  RH  037%=      5-min Rain = 0
KDC1 260055Z 03012KT 23/08 A2996 RMK A01 T02340076  RH  036%=      5-min Rain = 0
KDC1 260056Z 04010KT 23/08 A2996 RMK A01 T02340075  RH  036%=      5-min Rain = 0
KDC1 260057Z 03012KT 23/08 A2996 RMK A01 T02340075  RH  036%=      5-min Rain = 0
KDC1 260058Z 03012KT 23/08 A2996 RMK A01 T02340075  RH  036%=      5-min Rain = 0
KDC1 260059Z 04011KT 23/08 A2996 RMK A01 T02340076  RH  036%=      5-min Rain = 0
KDC1 260100Z 03011KT 23/08 A2996 RMK A01 T02330076  RH  036%=      5-min Rain = 0
KDC1 260101Z 02010KT 23/08 A2996 RMK A01 T02330075  RH  036%=      5-min Rain = 0
KDC1 260102Z 03011KT 23/08 A2996 RMK A01 T02330075  RH  036%=      5-min Rain = 0
KDC1 260103Z 02012KT 23/08 A2996 RMK A01 T02330075  RH  036%=      5-min Rain = 0
KDC1 260104Z 02011G16KT 23/08 A2996 RMK A01 T02320075  RH  036%=      5-min Rain = 0
KDC1 260105Z 02013KT 23/08 A2996 RMK A01 T02320075  RH  037%=      5-min Rain = 0
KDC1 260106Z 03011KT 23/08 A2996 RMK A01 T02310075  RH  037%=      5-min Rain = 0
KDC1 260107Z 03010KT 23/08 A2996 RMK A01 T02310076  RH  037%=      5-min Rain = 0
KDC1 260108Z 03010KT 23/08 A2996 RMK A01 T02310076  RH  037%=      5-min Rain = 0
KDC1 260109Z 04010KT 23/08 A2996 RMK A01 T02310075  RH  037%=      5-min Rain = 0
KDC1 260110Z 04012KT 23/08 A2996 RMK A01 T02320075  RH  036%=      5-min Rain = 0
KDC1 260111Z 03012KT 23/07 A2996 RMK A01 T02310073  RH  036%=      5-min Rain = 0
KDC1 260112Z 03010KT 23/07 A2996 RMK A01 T02310074  RH  036%=      5-min Rain = 0
KDC1 260113Z 04009KT 23/07 A2996 RMK A01 T02320074  RH  036%=      5-min Rain = 0
KDC1 260114Z 04009KT 23/08 A2996 RMK A01 T02310075  RH  037%=      5-min Rain = 0
KDC1 260115Z 04010KT 23/08 A2996 RMK A01 T02320076  RH  037%=      5-min Rain = 0
KDC1 260116Z 03011KT 23/08 A2996 RMK A01 T02310075  RH  037%=      5-min Rain = 0
KDC1 260117Z 03009KT 23/08 A2996 RMK A01 T02310075  RH  037%=      5-min Rain = 0
KDC1 260118Z 03008KT 23/08 A2996 RMK A01 T02310076  RH  037%=      5-min Rain = 0
KDC1 260119Z 04009KT 23/08 A2996 RMK A01 T02300076  RH  037%=      5-min Rain = 0
KDC1 260120Z 04011KT 23/08 A2997 RMK A01 T02300075  RH  037%=      5-min Rain = 0
KDC1 260121Z 04009KT 23/07 A2997 RMK A01 T02300074  RH  037%=      5-min Rain = 0
KDC1 260122Z 04008KT 23/08 A2997 RMK A01 T02290075  RH  037%=      5-min Rain = 0
KDC1 260123Z 03010KT 23/08 A2997 RMK A01 T02290075  RH  037%=      5-min Rain = 0
KDC1 260124Z 04008KT 23/08 A2997 RMK A01 T02290075  RH  037%=      5-min Rain = 0
KDC1 260125Z 04009KT 23/08 A2997 RMK A01 T02280076  RH  038%=      5-min Rain = 0
KDC1 260126Z 04009KT 23/08 A2997 RMK A01 T02280076  RH  038%=      5-min Rain = 0
KDC1 260127Z 04010KT 23/08 A2997 RMK A01 T02280077  RH  038%=      5-min Rain = 0
KDC1 260128Z 05010KT 23/08 A2997 RMK A01 T02270076  RH  038%=      5-min Rain = 0
KDC1 260129Z 05012KT 23/08 A2997 RMK A01 T02270076  RH  038%=      5-min Rain = 0
KDC1 260130Z 04010KT 23/08 A2997 RMK A01 T02260076  RH  038%=      5-min Rain = 0
KDC1 260131Z 04012KT 23/08 A2997 RMK A01 T02260076  RH  038%=      5-min Rain = 0
KDC1 260132Z 04011KT 23/08 A2997 RMK A01 T02250076  RH  038%=      5-min Rain = 0
KDC1 260133Z 04011KT 23/08 A2997 RMK A01 T02250076  RH  038%=      5-min Rain = 0
KDC1 260134Z 05010KT 22/08 A2997 RMK A01 T02240076  RH  038%=      5-min Rain = 0
KDC1 260135Z 04011KT 22/08 A2997 RMK A01 T02240076  RH  038%=      5-min Rain = 0
KDC1 260136Z 04010KT 22/08 A2997 RMK A01 T02240076  RH  039%=      5-min Rain = 0
KDC1 260137Z 04010KT 22/08 A2997 RMK A01 T02230076  RH  039%=      5-min Rain = 0
KDC1 260138Z 04009KT 22/08 A2997 RMK A01 T02230076  RH  039%=      5-min Rain = 0
KDC1 260139Z 04010KT 22/08 A2997 RMK A01 T02230076  RH  039%=      5-min Rain = 0
KDC1 260140Z 04011KT 22/08 A2997 RMK A01 T02230076  RH  039%=      5-min Rain = 0
KDC1 260141Z 04010KT 22/08 A2998 RMK A01 T02220075  RH  039%=      5-min Rain = 0
KDC1 260142Z 04008KT 22/08 A2998 RMK A01 T02220076  RH  039%=      5-min Rain = 0
KDC1 260143Z 04012KT 22/08 A2998 RMK A01 T02220076  RH  039%=      5-min Rain = 0
KDC1 260144Z 04011KT 22/08 A2998 RMK A01 T02210076  RH  039%=      5-min Rain = 0
KDC1 260145Z 04011KT 22/08 A2998 RMK A01 T02210076  RH  039%=      5-min Rain = 0
KDC1 260146Z 04010KT 22/08 A2998 RMK A01 T02210076  RH  039%=      5-min Rain = 0
KDC1 260147Z 04009KT 22/08 A2998 RMK A01 T02200076  RH  040%=      5-min Rain = 0
KDC1 260148Z 04011KT 22/08 A2998 RMK A01 T02190077  RH  040%=      5-min Rain = 0
KDC1 260149Z 04011KT 22/08 A2998 RMK A01 T02190077  RH  040%=      5-min Rain = 0
KDC1 260150Z 04011KT 22/08 A2998 RMK A01 T02180077  RH  040%=      5-min Rain = 0
KDC1 260151Z 04011KT 22/08 A2998 RMK A01 T02180077  RH  040%=      5-min Rain = 0
KDC1 260152Z 04012KT 22/08 A2998 RMK A01 T02180077  RH  040%=      5-min Rain = 0
KDC1 260153Z 04009KT 22/08 A2998 RMK A01 T02170077  RH  040%=      5-min Rain = 0
KDC1 260154Z 04010KT 22/08 A2998 RMK A01 T02170077  RH  041%=      5-min Rain = 0
KDC1 260155Z 04009KT 22/08 A2998 RMK A01 T02160078  RH  041%=      5-min Rain = 0
KDC1 260156Z 03008KT 22/08 A2998 RMK A01 T02150078  RH  041%=      5-min Rain = 0
KDC1 260157Z 03009KT 22/08 A2998 RMK A01 T02150078  RH  041%=      5-min Rain = 0
KDC1 260158Z 04008KT 21/08 A2998 RMK A01 T02140078  RH  042%=      5-min Rain = 0
KDC1 260159Z 04009KT 21/08 A2998 RMK A01 T02130078  RH  042%=      5-min Rain = 0
KDC1 260200Z 03008KT 21/08 A2998 RMK A01 T02130078  RH  042%=      5-min Rain = 0
KDC1 260201Z 03009KT 21/08 A2999 RMK A01 T02120078  RH  042%=      5-min Rain = 0
KDC1 260202Z 04007KT 21/08 A2999 RMK A01 T02120077  RH  042%=      5-min Rain = 0
KDC1 260203Z 04008KT 21/08 A2999 RMK A01 T02110077  RH  042%=      5-min Rain = 0
KDC1 260204Z 04009KT 21/08 A2999 RMK A01 T02110077  RH  042%=      5-min Rain = 0
KDC1 260205Z 04009KT 21/08 A2999 RMK A01 T02110077  RH  042%=      5-min Rain = 0
KDC1 260206Z 04009KT 21/08 A2999 RMK A01 T02110077  RH  042%=      5-min Rain = 0
KDC1 260207Z 04007KT 21/08 A2999 RMK A01 T02110077  RH  042%=      5-min Rain = 0
KDC1 260208Z 04007KT 21/08 A2999 RMK A01 T02100077  RH  042%=      5-min Rain = 0
KDC1 260209Z 04007KT 21/08 A2999 RMK A01 T02100077  RH  042%=      5-min Rain = 0
KDC1 260210Z 04008KT 21/08 A2999 RMK A01 T02090077  RH  043%=      5-min Rain = 0
KDC1 260211Z 04009KT 21/08 A2999 RMK A01 T02080077  RH  043%=      5-min Rain = 0
KDC1 260212Z 04009KT 21/08 A2999 RMK A01 T02080077  RH  043%=      5-min Rain = 0
KDC1 260213Z 04010KT 21/08 A2999 RMK A01 T02080077  RH  043%=      5-min Rain = 0
KDC1 260214Z 04010KT 21/08 A2999 RMK A01 T02080076  RH  042%=      5-min Rain = 0
KDC1 260215Z 04009KT 21/08 A2999 RMK A01 T02090077  RH  042%=      5-min Rain = 0
KDC1 260216Z 04010KT 21/08 A2999 RMK A01 T02080076  RH  042%=      5-min Rain = 0
KDC1 260217Z 04009KT 21/08 A2999 RMK A01 T02080076  RH  042%=      5-min Rain = 0
KDC1 260218Z 04010KT 21/08 A30 RMK A01 T02080076  RH  042%=      5-min Rain = 0
KDC1 260219Z 04009KT 21/08 A30 RMK A01 T02080075  RH  042%=      5-min Rain = 0
KDC1 260220Z 04008KT 21/08 A30 RMK A01 T02080075  RH  042%=      5-min Rain = 0
KDC1 260221Z 03007KT 21/08 A30 RMK A01 T02080075  RH  042%=      5-min Rain = 0
KDC1 260222Z 03008KT 21/08 A30 RMK A01 T02080076  RH  042%=      5-min Rain = 0
KDC1 260223Z 03008KT 21/08 A30 RMK A01 T02070076  RH  043%=      5-min Rain = 0
KDC1 260224Z 03009KT 21/08 A30 RMK A01 T02070076  RH  043%=      5-min Rain = 0
KDC1 260225Z 03008KT 21/08 A30 RMK A01 T02070076  RH  043%=      5-min Rain = 0
KDC1 260226Z 03009KT 21/08 A30 RMK A01 T02060076  RH  043%=      5-min Rain = 0
KDC1 260227Z 03009KT 21/08 A30 RMK A01 T02060076  RH  043%=      5-min Rain = 0
KDC1 260228Z 03009KT 21/08 A30 RMK A01 T02060076  RH  043%=      5-min Rain = 0
KDC1 260229Z 03009KT 21/08 A30 RMK A01 T02050076  RH  043%=      5-min Rain = 0
KDC1 260230Z 04008KT 21/08 A30 RMK A01 T02060076  RH  043%=      5-min Rain = 0
KDC1 260231Z 04008KT 21/08 A30 RMK A01 T02050076  RH  043%=      5-min Rain = 0
KDC1 260232Z 04008KT 21/08 A30 RMK A01 T02050076  RH  043%=      5-min Rain = 0
KDC1 260233Z 03008KT 21/08 A30 RMK A01 T02050076  RH  043%=      5-min Rain = 0
KDC1 260234Z 03009KT 20/08 A3001 RMK A01 T02040076  RH  043%=      5-min Rain = 0
KDC1 260235Z 03008KT 20/08 A3001 RMK A01 T02040076  RH  043%=      5-min Rain = 0
KDC1 260236Z 03007KT 20/08 A3001 RMK A01 T02040075  RH  043%=      5-min Rain = 0
KDC1 260237Z 03008KT 20/08 A3001 RMK A01 T02030075  RH  043%=      5-min Rain = 0
KDC1 260238Z 03008KT 20/08 A3001 RMK A01 T02030075  RH  043%=      5-min Rain = 0
KDC1 260239Z 03009KT 20/08 A3001 RMK A01 T02030075  RH  043%=      5-min Rain = 0
KDC1 260240Z 04008KT 20/08 A3001 RMK A01 T02030075  RH  043%=      5-min Rain = 0
KDC1 260241Z 03009KT 20/08 A3001 RMK A01 T02030075  RH  043%=      5-min Rain = 0
KDC1 260242Z 04010KT 20/08 A3001 RMK A01 T02030075  RH  044%=      5-min Rain = 0
KDC1 260243Z 04009KT 20/08 A3001 RMK A01 T02030076  RH  044%=      5-min Rain = 0
KDC1 260244Z 03009KT 20/08 A3001 RMK A01 T02030076  RH  044%=      5-min Rain = 0
KDC1 260245Z 04009KT 20/08 A3001 RMK A01 T02040077  RH  044%=      5-min Rain = 0
KDC1 260246Z 04010KT 20/08 A3001 RMK A01 T02030077  RH  044%=      5-min Rain = 0
KDC1 260247Z 03009KT 20/08 A3001 RMK A01 T02030077  RH  044%=      5-min Rain = 0
KDC1 260248Z 03008KT 20/08 A3002 RMK A01 T02040078  RH  044%=      5-min Rain = 0
KDC1 260249Z 03008KT 20/08 A3002 RMK A01 T02040078  RH  044%=      5-min Rain = 0
KDC1 260250Z 04010KT 20/08 A3002 RMK A01 T02040078  RH  044%=      5-min Rain = 0
KDC1 260251Z 03010KT 20/08 A3002 RMK A01 T02040078  RH  044%=      5-min Rain = 0
KDC1 260252Z 03009KT 20/08 A3002 RMK A01 T02040078  RH  044%=      5-min Rain = 0
KDC1 260253Z 03009KT 20/08 A3002 RMK A01 T02040078  RH  044%=      5-min Rain = 0
KDC1 260254Z 03010KT 20/08 A3002 RMK A01 T02040078  RH  044%=      5-min Rain = 0
KDC1 260255Z 03010KT 20/08 A3002 RMK A01 T02040078  RH  044%=      5-min Rain = 0
KDC1 260256Z 03010KT 20/08 A3002 RMK A01 T02040079  RH  044%=      5-min Rain = 0
KDC1 260257Z 03009KT 20/08 A3002 RMK A01 T02040079  RH  045%=      5-min Rain = 0
KDC1 260258Z 04009KT 20/08 A3002 RMK A01 T02030079  RH  045%=      5-min Rain = 0
KDC1 260259Z 04008KT 20/08 A3002 RMK A01 T02030080  RH  045%=      5-min Rain = 0
KDC1 260300Z 04009KT 20/08 A3002 RMK A01 T02030079  RH  045%=      5-min Rain = 0
KDC1 260301Z 04012KT 20/08 A3002 RMK A01 T02030080  RH  045%=      5-min Rain = 0
KDC1 260302Z 04011KT 20/08 A3002 RMK A01 T02030080  RH  045%=      5-min Rain = 0
KDC1 260303Z 04011KT 20/08 A3002 RMK A01 T02030080  RH  045%=      5-min Rain = 0
KDC1 260304Z 04010KT 20/08 A3002 RMK A01 T02020080  RH  045%=      5-min Rain = 0
KDC1 260305Z 04010KT 20/08 A3002 RMK A01 T02030080  RH  045%=      5-min Rain = 0
KDC1 260306Z 04009KT 20/08 A3002 RMK A01 T02020081  RH  045%=      5-min Rain = 0
KDC1 260307Z 04009KT 20/08 A3002 RMK A01 T02020081  RH  045%=      5-min Rain = 0
KDC1 260308Z 04007KT 20/08 A3002 RMK A01 T02020080  RH  045%=      5-min Rain = 0
KDC1 260309Z 03008KT 20/08 A3002 RMK A01 T02010080  RH  046%=      5-min Rain = 0
KDC1 260310Z 03008KT 20/08 A3002 RMK A01 T02010080  RH  046%=      5-min Rain = 0
KDC1 260311Z 03009KT 20/08 A3002 RMK A01 T02010080  RH  046%=      5-min Rain = 0
KDC1 260312Z 04009KT 20/08 A3002 RMK A01 T02010079  RH  045%=      5-min Rain = 0
KDC1 260313Z 03010KT 20/08 A3002 RMK A01 T02010080  RH  045%=      5-min Rain = 0
KDC1 260314Z 03009KT 20/08 A3003 RMK A01 T02010079  RH  045%=      5-min Rain = 0
KDC1 260315Z 03008KT 20/08 A3003 RMK A01 T02000079  RH  045%=      5-min Rain = 0
KDC1 260316Z 03008KT 20/08 A3003 RMK A01 T02000079  RH  046%=      5-min Rain = 0
KDC1 260317Z 04007KT 20/08 A3003 RMK A01 T02000079  RH  046%=      5-min Rain = 0
KDC1 260318Z 03008KT 20/08 A3003 RMK A01 T01990079  RH  046%=      5-min Rain = 0
KDC1 260319Z 03007KT 20/08 A3003 RMK A01 T01990079  RH  046%=      5-min Rain = 0
KDC1 260320Z 03009G14KT 20/08 A3003 RMK A01 T01980079  RH  046%=      5-min Rain = 0
KDC1 260321Z 03008KT 20/08 A3003 RMK A01 T01980079  RH  046%=      5-min Rain = 0
KDC1 260322Z 04009KT 20/08 A3003 RMK A01 T01980079  RH  046%=      5-min Rain = 0
KDC1 260323Z 03009KT 20/08 A3003 RMK A01 T01980079  RH  046%=      5-min Rain = 0
KDC1 260324Z 04007KT 20/08 A3003 RMK A01 T01980079  RH  046%=      5-min Rain = 0
KDC1 260325Z 03007KT 20/08 A3003 RMK A01 T01980079  RH  046%=      5-min Rain = 0
KDC1 260326Z 04008KT 20/08 A3003 RMK A01 T01980079  RH  046%=      5-min Rain = 0
KDC1 260327Z 03008KT 20/08 A3003 RMK A01 T01980080  RH  046%=      5-min Rain = 0
KDC1 260328Z 04008KT 20/08 A3003 RMK A01 T01980079  RH  046%=      5-min Rain = 0
KDC1 260329Z 04008KT 20/08 A3003 RMK A01 T01970079  RH  046%=      5-min Rain = 0
KDC1 260330Z 04008KT 20/08 A3003 RMK A01 T01970079  RH  046%=      5-min Rain = 0
KDC1 260331Z 03008KT 20/08 A3003 RMK A01 T01970079  RH  046%=      5-min Rain = 0
KDC1 260332Z 04008KT 20/08 A3004 RMK A01 T01970079  RH  046%=      5-min Rain = 0
KDC1 260333Z 04008KT 20/08 A3004 RMK A01 T01970079  RH  046%=      5-min Rain = 0
KDC1 260334Z 05010KT 20/08 A3004 RMK A01 T01970079  RH  046%=      5-min Rain = 0
KDC1 260335Z 04010KT 20/08 A3004 RMK A01 T01970079  RH  046%=      5-min Rain = 0
KDC1 260336Z 04011KT 20/08 A3004 RMK A01 T01980078  RH  046%=      5-min Rain = 0
KDC1 260337Z 04009KT 20/08 A3004 RMK A01 T01980079  RH  046%=      5-min Rain = 0
KDC1 260338Z 04008KT 20/08 A3004 RMK A01 T01980079  RH  046%=      5-min Rain = 0
KDC1 260339Z 04008KT 20/08 A3004 RMK A01 T01980079  RH  046%=      5-min Rain = 0
KDC1 260340Z 04010KT 20/08 A3004 RMK A01 T01970079  RH  046%=      5-min Rain = 0
KDC1 260341Z 04010KT 20/08 A3004 RMK A01 T01970079  RH  046%=      5-min Rain = 0
KDC1 260342Z 04009KT 20/08 A3004 RMK A01 T01970079  RH  046%=      5-min Rain = 0
KDC1 260343Z 04011KT 20/08 A3004 RMK A01 T01970078  RH  046%=      5-min Rain = 0
KDC1 260344Z 04012KT 20/08 A3004 RMK A01 T01970079  RH  046%=      5-min Rain = 0
KDC1 260345Z 05010KT 20/08 A3004 RMK A01 T01970078  RH  046%=      5-min Rain = 0
KDC1 260346Z 04010KT 20/08 A3004 RMK A01 T01970079  RH  046%=      5-min Rain = 0
KDC1 260347Z 04010KT 20/08 A3004 RMK A01 T01970079  RH  046%=      5-min Rain = 0
KDC1 260348Z 04009KT 20/08 A3004 RMK A01 T01960079  RH  047%=      5-min Rain = 0
KDC1 260349Z 05009KT 20/08 A3004 RMK A01 T01950079  RH  047%=      5-min Rain = 0
KDC1 260350Z 04009KT 20/08 A3004 RMK A01 T01950079  RH  047%=      5-min Rain = 0
KDC1 260351Z 04010KT 20/08 A3004 RMK A01 T01950079  RH  047%=      5-min Rain = 0
KDC1 260352Z 04010KT 19/08 A3004 RMK A01 T01940078  RH  047%=      5-min Rain = 0
KDC1 260353Z 03009G14KT 20/08 A3004 RMK A01 T01950078  RH  047%=      5-min Rain = 0
KDC1 260354Z 04010KT 19/08 A3004 RMK A01 T01940078  RH  047%=      5-min Rain = 0
KDC1 260355Z 04010KT 20/08 A3004 RMK A01 T01950078  RH  047%=      5-min Rain = 0
KDC1 260356Z 04010KT 20/08 A3004 RMK A01 T01950078  RH  047%=      5-min Rain = 0
KDC1 260357Z 04009KT 20/08 A3004 RMK A01 T01950077  RH  047%=      5-min Rain = 0
KDC1 260358Z 04010KT 20/08 A3005 RMK A01 T01950078  RH  047%=      5-min Rain = 0
KDC1 260359Z 04009KT 20/08 A3005 RMK A01 T01950078  RH  047%=      5-min Rain = 0
KDC1 260400Z 04009KT 20/08 A3005 RMK A01 T01950078  RH  047%=      5-min Rain = 0
KDC1 260401Z 04009KT 20/08 A3005 RMK A01 T01950078  RH  047%=      5-min Rain = 0
KDC1 260402Z 04008KT 20/08 A3005 RMK A01 T01950078  RH  047%=      5-min Rain = 0
KDC1 260403Z 04009KT 19/08 A3005 RMK A01 T01940078  RH  047%=      5-min Rain = 0
KDC1 260404Z 04009KT 19/08 A3005 RMK A01 T01940078  RH  047%=      5-min Rain = 0
KDC1 260405Z 04009KT 19/08 A3005 RMK A01 T01940078  RH  047%=      5-min Rain = 0
KDC1 260406Z 03009KT 19/08 A3005 RMK A01 T01930078  RH  047%=      5-min Rain = 0
KDC1 260407Z 03009KT 19/08 A3005 RMK A01 T01940078  RH  047%=      5-min Rain = 0
KDC1 260408Z 04008KT 19/08 A3005 RMK A01 T01940077  RH  047%=      5-min Rain = 0
KDC1 260409Z 04009KT 19/08 A3005 RMK A01 T01940077  RH  047%=      5-min Rain = 0
KDC1 260410Z 04009KT 19/08 A3005 RMK A01 T01940077  RH  047%=      5-min Rain = 0
KDC1 260411Z 04009KT 19/08 A3005 RMK A01 T01940077  RH  047%=      5-min Rain = 0
KDC1 260412Z 04008KT 19/08 A3005 RMK A01 T01940077  RH  047%=      5-min Rain = 0
KDC1 260413Z 04009KT 19/08 A3005 RMK A01 T01940077  RH  047%=      5-min Rain = 0
KDC1 260414Z 04008KT 19/08 A3005 RMK A01 T01940077  RH  047%=      5-min Rain = 0
KDC1 260415Z 04007KT 19/08 A3005 RMK A01 T01930077  RH  047%=      5-min Rain = 0
KDC1 260416Z 05008KT 19/08 A3005 RMK A01 T01930077  RH  047%=      5-min Rain = 0
KDC1 260417Z 05007KT 19/08 A3005 RMK A01 T01920078  RH  047%=      5-min Rain = 0
KDC1 260418Z 05007KT 19/08 A3005 RMK A01 T01920078  RH  048%=      5-min Rain = 0
KDC1 260419Z 05006KT 19/08 A3005 RMK A01 T01910078  RH  048%=      5-min Rain = 0
KDC1 260420Z 05007KT 19/08 A3005 RMK A01 T01910078  RH  048%=      5-min Rain = 0
KDC1 260421Z 05006KT 19/08 A3005 RMK A01 T01900077  RH  048%=      5-min Rain = 0
KDC1 260422Z 05006KT 19/08 A3005 RMK A01 T01900078  RH  048%=      5-min Rain = 0
KDC1 260423Z 05006KT 19/08 A3005 RMK A01 T01900078  RH  048%=      5-min Rain = 0
KDC1 260424Z 05007KT 19/08 A3005 RMK A01 T01900078  RH  048%=      5-min Rain = 0
KDC1 260425Z 05008KT 19/08 A3005 RMK A01 T01900077  RH  048%=      5-min Rain = 0
KDC1 260426Z 05008KT 19/08 A3005 RMK A01 T01900076  RH  048%=      5-min Rain = 0
KDC1 260427Z 05007KT 19/08 A3005 RMK A01 T01910076  RH  047%=      5-min Rain = 0
KDC1 260428Z 05007KT 19/08 A3005 RMK A01 T01910076  RH  047%=      5-min Rain = 0
KDC1 260429Z 04005KT 19/08 A3005 RMK A01 T01910076  RH  047%=      5-min Rain = 0
KDC1 260430Z 03005KT 19/08 A3005 RMK A01 T01900077  RH  048%=      5-min Rain = 0
KDC1 260431Z 03005KT 19/08 A3005 RMK A01 T01890077  RH  048%=      5-min Rain = 0
KDC1 260432Z 02005KT 19/08 A3005 RMK A01 T01880077  RH  048%=      5-min Rain = 0
KDC1 260433Z 02005KT 19/08 A3005 RMK A01 T01870077  RH  049%=      5-min Rain = 0
KDC1 260434Z 01005KT 19/08 A3005 RMK A01 T01860078  RH  049%=      5-min Rain = 0
KDC1 260435Z 01005KT 18/08 A3005 RMK A01 T01840077  RH  050%=      5-min Rain = 0
KDC1 260436Z 01005KT 18/08 A3005 RMK A01 T01830077  RH  050%=      5-min Rain = 0
KDC1 260437Z 01005KT 18/08 A3005 RMK A01 T01810077  RH  050%=      5-min Rain = 0
KDC1 260438Z 02005KT 18/08 A3005 RMK A01 T01800077  RH  051%=      5-min Rain = 0
KDC1 260439Z 02005KT 18/08 A3006 RMK A01 T01790076  RH  051%=      5-min Rain = 0
KDC1 260440Z 02005KT 18/08 A3006 RMK A01 T01780076  RH  051%=      5-min Rain = 0
KDC1 260441Z 02005KT 18/08 A3006 RMK A01 T01780076  RH  051%=      5-min Rain = 0
KDC1 260442Z 02005KT 18/08 A3006 RMK A01 T01770076  RH  051%=      5-min Rain = 0
KDC1 260443Z 03005KT 18/08 A3006 RMK A01 T01770076  RH  052%=      5-min Rain = 0
KDC1 260444Z 03006KT 18/08 A3006 RMK A01 T01770076  RH  052%=      5-min Rain = 0
KDC1 260445Z 03006KT 18/08 A3006 RMK A01 T01770076  RH  052%=      5-min Rain = 0
KDC1 260446Z 03005KT 18/08 A3006 RMK A01 T01770076  RH  052%=      5-min Rain = 0
KDC1 260447Z 03004KT 18/08 A3006 RMK A01 T01770076  RH  051%=      5-min Rain = 0
KDC1 260448Z 04005KT 18/08 A3006 RMK A01 T01780076  RH  051%=      5-min Rain = 0
KDC1 260449Z 04005KT 18/08 A3006 RMK A01 T01780076  RH  051%=      5-min Rain = 0
KDC1 260450Z 04006KT 18/08 A3006 RMK A01 T01780076  RH  051%=      5-min Rain = 0
KDC1 260451Z 04007KT 18/08 A3006 RMK A01 T01790077  RH  051%=      5-min Rain = 0
KDC1 260452Z 04007KT 18/08 A3006 RMK A01 T01800077  RH  051%=      5-min Rain = 0
KDC1 260453Z 04007KT 18/08 A3006 RMK A01 T01810077  RH  051%=      5-min Rain = 0
KDC1 260454Z 04007KT 18/08 A3006 RMK A01 T01820077  RH  050%=      5-min Rain = 0
KDC1 260455Z 04007KT 18/08 A3006 RMK A01 T01830077  RH  050%=      5-min Rain = 0
KDC1 260456Z 04006KT 18/08 A3006 RMK A01 T01840077  RH  050%=      5-min Rain = 0
KDC1 260457Z 04006KT 18/08 A3006 RMK A01 T01840077  RH  050%=      5-min Rain = 0
KDC1 260458Z 04006KT 18/08 A3006 RMK A01 T01840077  RH  050%=      5-min Rain = 0
KDC1 260459Z 04005KT 18/08 A3006 RMK A01 T01840077  RH  050%=      5-min Rain = 0

Page generated in 0.0702 seconds.